APDL
Data 08-04-2020

Previsão de Chegada de Navios

Fonte de dados: JUPII - Janela Única Portuária
* Informação em Tempo Real
Data Prevista Chegada Pasta Contramarca Nº Imo Navio Indicativo Chamada Bandeira Comp. GT Local de Atracação Calado Porto Agente Navegação Tipo de Navio
Entrada Saida Origem Destino
2020/04/06 08:00 ESC202000747 000747 9485186 NAVIN EAGLE V7LW4 ILHAS MARSHALL 112.8 5087.0 DOCA 4 NORTE 6.2 5.5 CAEN ROTTERDAM JAMES RAWES-NAVEGAÇÃO, LDA GRANELEIRO
2020/04/09 05:00 ESC202000829 000831 9466726 SLOMAN HERAKLES V2FY4 ANTIGUA E BARBUDA 145.15 11298.0 TERMINAL PETROLEIRO - POSTO A 6.6 7.2 TANGIER ANTWERPEN WILHELMSEN SHIPS SERVICE PORTUGAL, S.A. N/T PRODUT.QUIMICOS
2020/04/09 09:00 ESC202000720 000720 9617296 WILSON LIVERPOOL 5BJP3 CHIPRE 89.86 2589.0 DOCA 2 NORTE 4.0 5.0 SAGUNTO SETÚBAL NAVEX - EMP. PORT. DE NAVEGACAO CARGA GERAL N.D.
2020/04/09 12:00 ESC202000802 000803 9217333 HIRA V 9HA5137 MALTA 113.5 4336.0 TERMINAL PETROLEIRO - POSTO B 5.1 5.2 CASABLANCA BARCELONA ATLANTIC LUSOFRETE - AFRET.TRANSPORTES E NAVEG. SA N/T PRODUT.QUIMICOS
2020/04/09 12:00 ESC202000687 000687 9000742 MSC JENNY CQDA PORTUGAL 200.05 28397.0 TERMINAL DE CONTENTORES SUL 8.9 8.5 SINES GIJÓN MEDITERRANEAN SHIPPING CO. PORTA-CONTENTORES
2020/04/09 16:00 ESC202000652 000651 9483695 NORDICA PCSK PAISES BAIXOS 151.72 10318.0 TERMINAL DE CONTENTORES SUL LISBOA TILBURY GARLAND NAVEGACAO PORTA-CONTENTORES
2020/04/09 17:00 ESC202000776 000777 9351098 MAX STABILITY 9HA4086 MALTA 126.87 7532.0 TERMINAL DE CONTENTORES NORTE 6.4 6.8 CANIÇAL CANIÇAL SOFRENA - SOC. AFRET. NAVEGACAO PORTA-CONTENTORES
2020/04/10 06:00 ESC202000740 000740 9620669 SUN DISCOVERER V2F02 ANTIGUA E BARBUDA 138.0 9611.0 TERMINAL DE CONTENTORES NORTE 6.5 6.5 BREMEN ALGER (ALGIERS) IBERO LINHAS (PORTO) TRANSPORTES CARGA GERAL N.D.
2020/04/10 06:00 ESC202000793 000794 9333383 JONNI RITSCHER A8JT7 LIBERIA 178.57 17360.0 TERMINAL DE CONTENTORES SUL 8.9 8.9 TANGER MED ANTWERPEN HAPAG-LLOYD PORTUGAL PORTA-CONTENTORES
2020/04/10 06:00 ESC202000764 000765 9246566 WEC VAN GOGH C4TK2 CHIPRE 134.44 9962.0 TERMINAL DE CONTENTORES SUL 8.0 8.0 ANTWERPEN SETÚBAL WEC LINES - IBERO PORTUGAL PORTA-CONTENTORES
2020/04/10 07:00 ESC202000794 000795 9155377 HANSA RENDSBURG A8CF4 LIBERIA 175.58 18335.0 TERMINAL DE CONTENTORES SUL 9.45 9.45 DUNKERQUE TANGER MED HAPAG-LLOYD PORTUGAL PORTA-CONTENTORES
2020/04/10 12:00 ESC202000805 000806 9306304 MANISA SOLE CQAS2 PORTUGAL 108.16 5581.0 DOCA 4 NORTE 7.15 7.0 CAEN UNKOWN LOCATION GARLAND NAVEGACAO CARGA GERAL N.D.
2020/04/10 22:00 ESC202000750 000750 9376050 WILHELM 5BJB2 CHIPRE 134.44 9981.0 TERMINAL DE CONTENTORES SUL 6.5 6.5 VIGO TANGER MED MACANDREWS - NAVEGACAO E TRANSITO, LD PORTA-CONTENTORES
2020/04/10 22:00 ESC202000778 000779 9123788 MONTE DA GUIA CSDB PORTUGAL 126.25 7039.0 TERMINAL DE CONTENTORES NORTE 5.5 6.9 YALOVA PONTA DELGADA SOFRENA - SOC. AFRET. NAVEGACAO MISTO C.GERAL/CONTEN.
2020/04/10 23:00 ESC202000648 000647 9328651 X-PRESS VESUVIO 9HA3961 MALTA 133.6 6454.0 TERMINAL DE CONTENTORES SUL VIGO CASABLANCA GARLAND NAVEGACAO PORTA-CONTENTORES
2020/04/11 06:00 ESC202000766 000767 9244192 CONMAR FJORD CQAH8 PORTUGAL 132.6 6191.0 TERMINAL DE CONTENTORES SUL 6.5 6.5 FIGUEIRA DA FOZ LISBOA WEC LINES - IBERO PORTUGAL PORTA-CONTENTORES
2020/04/11 06:00 ESC202000142 000142 9246530 KATHERINE BORCHARD V2BW7 ANTIGUA E BARBUDA 134.44 9962.0 TERMINAL DE CONTENTORES NORTE 8.0 8.0 LIVERPOOL CASTELLÓN DE LA PLANA MARMEDSA - AGENCIA MARITIMA, LDA PORTA-CONTENTORES
2020/04/11 06:00 ESC202000669 000669 9349215 ASTROSPRINTER C4RJ2 CHIPRE 141.58 7720.0 TERMINAL DE CONTENTORES SUL 7.5 7.5 SETÚBAL LIVERPOOL WEC LINES - IBERO PORTUGAL PORTA-CONTENTORES
2020/04/11 06:00 ESC202000694 000694 9429211 CERES V2QC4 ANTIGUA E BARBUDA 140.69 9983.0 TERMINAL DE CONTENTORES NORTE 7.0 7.0 CASTELLÓN DE LA PLANA DUBLIN MARMEDSA - AGENCIA MARITIMA, LDA PORTA-CONTENTORES
2020/04/11 06:00 ESC202000695 000695 9354428 SARA BORCHARD CQEJ PORTUGAL 134.44 9962.0 TERMINAL DE CONTENTORES NORTE 7.0 7.0 LIVERPOOL CASTELLÓN DE LA PLANA MARMEDSA - AGENCIA MARITIMA, LDA PORTA-CONTENTORES
2020/04/11 07:00 ESC202000771 000772 9376701 PALATINE 9HA2152 MALTA 195.4 25593.0 Terminal Multiusos de Leixões (Molhe Sul) ROTTERDAM ROTTERDAM DELPHIS PORTUGAL, LDA RO-RO, N.D.
2020/04/11 08:00 ESC202000387 000386 9356115 SAFMARINE NUBA VRLA5 HONG KONG 210.54 25904.0 TERMINAL DE CONTENTORES SUL ALGECIRAS LISBOA MAERSK PORTUGAL - AGENTES TRANSPORTES INTERN PORTA-CONTENTORES
2020/04/11 08:00 ESC202000597 000595 9337365 VENTO DI MAESTRALE 9HA5104 MALTA 183.86 17687.0 TERMINAL DE CONTENTORES SUL CASABLANCA SETÚBAL Tarros Portugal - Agentes de Navegação S.A. PORTA-CONTENTORES
2020/04/11 08:00 ESC202000840 000841 9373137 KORSARO IBES ITALIA 169.9 17644.0 TERMINAL PETROLEIRO - POSTO B 8.0 7.0 SINES SINES WILHELMSEN SHIPS SERVICE PORTUGAL, S.A. N/T PRODUT.QUIMICOS
2020/04/11 09:00 ESC202000804 000805 9728887 NORTHERN ROCK PCZQ PAISES BAIXOS 92.2 2989.0 TERMINAL DE CONTENTORES SUL 4.25 SZCZECIN GIBRALTAR OREY COMERCIO E NAVEGACAO CARGA GERAL N.D.
2020/04/11 12:00 ESC202000830 000832 9197387 CELTIC MARINER MCNA9 REINO UNIDO 87.97 2446.0 DOCA 1 SUL - ÁREA NÃO CONCESSIONADA 5.6 4.0 LONDON UNKOWN LOCATION I.C.C.-AG.NAV.TRANSP.TERRESTRE CARGA GERAL N.D.
2020/04/11 12:00 ESC202000824 000825 9474539 MARIANNE ONKA BELGICA 97.24 3493.0 TERMINAL PETROLEIRO - POSTO C 5.5 4.5 SINES UNKOWN LOCATION PINTO BASTO IV-SERVICOS MARITIMOS, LDA. TRANSP.GAS LIQUEFEITO
2020/04/11 12:00 ESC202000842 000843 9141352 PAUL V2GQ7 ANTIGUA E BARBUDA 89.78 2844.0 DOCA 2 SUL 6.2 3.6 BORDEAUX UNKOWN LOCATION NAVEX - EMP. PORT. DE NAVEGACAO CARGA GERAL N.D.
2020/04/12 12:00 ESC202000749 000749 9412517 PHILEMON V2EV6 ANTIGUA E BARBUDA 157.69 11550.0 TERMINAL DE CONTENTORES SUL 6.5 6.5 SETÚBAL TILBURY MACANDREWS - NAVEGACAO E TRANSITO, LD PORTA-CONTENTORES
2020/04/12 14:00 ESC202000849 000850 9340300 EEMS TRANSPORTER PHBC PAISES BAIXOS 89.99 2186.0 DOCA 2 NORTE 4.0 4.0 COBH FOYNES BURMESTER STUVE CARGA GERAL N.D.
2020/04/12 20:00 ESC202000761 000761 9255775 ENCOUNTER PHA0 PAISES BAIXOS 133.9 7642.0 TERMINAL DE CONTENTORES SUL 6.5 6.5 SETÚBAL LIVERPOOL MACANDREWS - NAVEGACAO E TRANSITO, LD PORTA-CONTENTORES
2020/04/12 23:00 ESC202000834 000836 9125671 CELTIC VOYAGER MDZU7 REINO UNIDO 89.9 2805.0 DOCA 1 SUL - ÁREA NÃO CONCESSIONADA 5.9 4.0 RIDHAM DOCK UNKOWN LOCATION I.C.C.-AG.NAV.TRANSP.TERRESTRE CARGA GERAL N.D.
2020/04/13 00:00 ESC202000715 000715 9343168 GRANDE GHANA ICEZ ITALIA 210.92 47115.0 TERMINAL DE CONTENTORES NORTE HAMBURG LISBOA GRIMALDI PORTUGAL LDA TRANSPORTE VEICULOS
2020/04/13 06:00 ESC202000586 000584 9448671 BEATRIZ B 5BUB4 CHIPRE 158.08 12514.0 TERMINAL DE CONTENTORES NORTE 8.15 8.25 VILLAGARCÍA (DE AROUSA) LAS PALMAS PORTMAR PORTA-CONTENTORES
2020/04/13 06:00 ESC202000765 000766 9246566 WEC VAN GOGH C4TK2 CHIPRE 134.44 9962.0 TERMINAL DE CONTENTORES SUL 8.0 8.0 SINES VIGO WEC LINES - IBERO PORTUGAL PORTA-CONTENTORES
2020/04/13 06:00 ESC202000763 000763 9315018 ELITE PHDA PAISES BAIXOS 149.14 11662.0 TERMINAL DE CONTENTORES SUL 8.0 8.0 SETÚBAL TILBURY WEC LINES - IBERO PORTUGAL PORTA-CONTENTORES
2020/04/13 06:00 ESC202000756 000756 9504073 WES JANINE 5BLW4 CHIPRE 151.72 10685.0 TERMINAL DE CONTENTORES NORTE LISBOA LONDON One Shipping, Unipessoal Lda PORTA-CONTENTORES
2020/04/13 06:00 ESC202000724 000724 9193513 BF NILOU V2FT2 ANTIGUA E BARBUDA 129.43 7814.0 TERMINAL DE CONTENTORES NORTE 6.1 6.5 PRAIA LISBOA SOFRENA - SOC. AFRET. NAVEGACAO PORTA-CONTENTORES
2020/04/13 12:00 ESC202000838 000839 9141613 PONTA DO SOL CSCR PORTUGAL 100.62 4115.0 TERMINAL DE CONTENTORES NORTE 5.8 6.3 PONTA DELGADA PRAIA DA VITÓRIA SOFRENA - SOC. AFRET. NAVEGACAO MISTO C.GERAL/CONTEN.
2020/04/14 06:00 ESC202000386 000385 9356103 SAFMARINE NAKURU VRKZ8 HONG KONG 210.54 25904.0 TERMINAL DE CONTENTORES SUL TANGER MED LISBOA MAERSK PORTUGAL - AGENTES TRANSPORTES INTERN PORTA-CONTENTORES
2020/04/14 07:00 ESC202000837 000838 9157868 LAURA S CQYK PORTUGAL 119.65 5850.0 TERMINAL DE CONTENTORES NORTE 6.0 6.0 LISBOA PONTA DELGADA PMAR - Navegação, Lda PORTA-CONTENTORES
2020/04/14 07:00 ESC202000818 000819 9376696 MAZARINE 9HA4332 MALTA 195.4 25593.0 Terminal Multiusos de Leixões (Molhe Sul) ROTTERDAM ROTTERDAM DELPHIS PORTUGAL, LDA RO-RO, N.D.
2020/04/14 18:00 ESC202000659 000659 9008603 MSC AMERICA HOYZ PANAMA 216.01 34231.0 TERMINAL DE CONTENTORES SUL SINES GIJÓN MEDITERRANEAN SHIPPING CO. PORTA-CONTENTORES
2020/04/15 07:00 ESC202000620 000618 9515591 RAQUEL S CQAC6 PORTUGAL 171.99 17280.0 TERMINAL DE CONTENTORES SUL 7.0 7.0 ALGECIRAS LISBOA PMAR - Navegação, Lda PORTA-CONTENTORES
2020/04/15 07:00 ESC202000751 000751 9681534 UAL COLOGNE PBCK PAISES BAIXOS 127.3 5925.0 TERMINAL DE CONTENTORES NORTE 7.0 7.0 ANTWERPEN LAS PALMAS PORTMAR CARGA GERAL N.D.
2020/04/16 06:00 ESC202000831 000833 9582855 NIKLAS V2GO6 ANTIGUA E BARBUDA 87.83 2452.0 DOCA 2 NORTE 4.0 5.0 AVILES BREMEN BURMESTER STUVE CARGA GERAL N.D.
2020/04/16 07:00 ESC202000832 000834 9584475 HEINRICH SCHEPERS 5BVN3 CHIPRE 151.72 10318.0 TERMINAL DE CONTENTORES SUL 6.5 6.5 SETÚBAL TILBURY MACANDREWS - NAVEGACAO E TRANSITO, LD PORTA-CONTENTORES
2020/04/16 17:00 ESC202000719 000719 9388390 FUNCHALENSE 5 CSKN PORTUGAL 127.0 7580.0 TERMINAL DE CONTENTORES NORTE 6.0 6.0 CANIÇAL CANIÇAL PMAR - Navegação, Lda PORTA-CONTENTORES
2020/04/16 18:00 VND202000004 000828 8324684 NORDICA HAV V2QT7 ANTIGUA E BARBUDA 82.48 1521.0 VARZEA 2.8 3.95 AVEIRO UDDEVALLA MARAX - COM. MARITIMO E FLUVIAL CARGA GERAL N.D.
2020/04/17 06:00 ESC202000797 000798 9458975 SAMSKIP ESTRELA V2GC2 ANTIGUA E BARBUDA 151.72 10585.0 TERMINAL DE CONTENTORES SUL 8.0 8.0 LISBOA TILBURY MARMEDSA - AGENCIA MARITIMA, LDA PORTA-CONTENTORES
2020/04/17 06:00 ESC202000845 000846 9237371 WEC VERMEER 5BLR3 CHIPRE 134.44 9981.0 TERMINAL DE CONTENTORES SUL 8.0 8.0 ANTWERPEN SETÚBAL WEC LINES - IBERO PORTUGAL PORTA-CONTENTORES
2020/04/17 06:00 ESC202000826 000827 9333383 JONNI RITSCHER A8JT7 LIBERIA 178.57 17360.0 TERMINAL DE CONTENTORES SUL 8.9 8.9 DUNKERQUE TANGER MED HAPAG-LLOYD PORTUGAL PORTA-CONTENTORES
2020/04/17 07:00 ESC202000791 000792 9376050 WILHELM 5BJB2 CHIPRE 134.44 9981.0 TERMINAL DE CONTENTORES SUL 6.5 6.5 VIGO TANGER MED MACANDREWS - NAVEGACAO E TRANSITO, LD PORTA-CONTENTORES
2020/04/17 08:00 ESC202000732 000732 9356103 SAFMARINE NAKURU VRKZ8 HONG KONG 210.54 25904.0 TERMINAL DE CONTENTORES SUL ALGECIRAS LISBOA MAERSK PORTUGAL - AGENTES TRANSPORTES INTERN PORTA-CONTENTORES
2020/04/18 06:00 ESC202000699 000699 9246530 KATHERINE BORCHARD V2BW7 ANTIGUA E BARBUDA 134.44 9962.0 TERMINAL DE CONTENTORES NORTE 7.0 7.0 LIVERPOOL CASTELLÓN DE LA PLANA MARMEDSA - AGENCIA MARITIMA, LDA PORTA-CONTENTORES
2020/04/18 06:00 ESC202000808 000809 9292943 XPRESS MONTE CERVINO 9HA3980 MALTA 133.6 6454.0 TERMINAL DE CONTENTORES SUL VIGO CASABLANCA GARLAND NAVEGACAO PORTA-CONTENTORES
2020/04/18 06:00 ESC202000839 000840 9351098 MAX STABILITY 9HA4086 MALTA 126.87 7532.0 TERMINAL DE CONTENTORES NORTE 5.8 6.5 LISBOA CANIÇAL SOFRENA - SOC. AFRET. NAVEGACAO PORTA-CONTENTORES
2020/04/18 06:00 ESC202000843 000844 9315006 ELAN PHCZ PAISES BAIXOS 149.14 11662.0 TERMINAL DE CONTENTORES SUL 8.0 8.0 VIGO SETÚBAL WEC LINES - IBERO PORTUGAL PORTA-CONTENTORES
2020/04/18 06:00 ESC202000698 000698 9354416 JUDITH BORCHARD CQAU6 PORTUGAL 134.44 9962.0 TERMINAL DE CONTENTORES NORTE 7.0 7.0 CASTELLÓN DE LA PLANA DUBLIN MARMEDSA - AGENCIA MARITIMA, LDA PORTA-CONTENTORES
2020/04/18 07:00 ESC202000819 000820 9376701 PALATINE 9HA2152 MALTA 195.4 25593.0 Terminal Multiusos de Leixões (Molhe Sul) ROTTERDAM ROTTERDAM DELPHIS PORTUGAL, LDA RO-RO, N.D.
2020/04/18 07:00 ESC202000833 000835 9255787 ENERGY CQAX2 PORTUGAL 134.62 7660.0 TERMINAL DE CONTENTORES SUL 6.5 6.5 SETÚBAL LIVERPOOL MACANDREWS - NAVEGACAO E TRANSITO, LD PORTA-CONTENTORES
2020/04/19 00:00 ESC202000708 000708 9289063 PINARA A8RF9 LIBERIA 175.59 18334.0 TERMINAL DE CONTENTORES SUL CASABLANCA SETÚBAL CMA CGM PORTUGAL PORTA-CONTENTORES
2020/04/19 06:00 ESC202000848 000849 9244192 CONMAR FJORD CQAH8 PORTUGAL 132.6 6191.0 TERMINAL DE CONTENTORES SUL 6.5 6.5 FIGUEIRA DA FOZ SETÚBAL WEC LINES - IBERO PORTUGAL PORTA-CONTENTORES
2020/04/19 06:00 ESC202000757 000757 9504061 WES GESA 5BKD4 CHIPRE 151.72 10585.0 TERMINAL DE CONTENTORES NORTE LISBOA LONDON One Shipping, Unipessoal Lda PORTA-CONTENTORES
2020/04/19 06:00 ESC202000825 000826 9435686 LUDWIG SCHULTE 9VFK9 SINGAPURA 175.48 18321.0 TERMINAL DE CONTENTORES SUL 9.0 9.0 TANGER MED ANTWERPEN HAPAG-LLOYD PORTUGAL PORTA-CONTENTORES
2020/04/19 06:00 ESC202000847 000848 9349215 ASTROSPRINTER C4RJ2 CHIPRE 141.58 7720.0 TERMINAL DE CONTENTORES SUL 8.0 8.0 SETÚBAL LIVERPOOL WEC LINES - IBERO PORTUGAL PORTA-CONTENTORES
2020/04/19 07:00 ESC202000723 000723 9448669 MARIELYST CQAE2 PORTUGAL 157.92 12514.0 TERMINAL DE CONTENTORES NORTE 8.5 8.5 LISBOA SANTA CRUZ DE TENERIFE PORTMAR PORTA-CONTENTORES
2020/04/19 09:00 ESC202000806 000807 9534482 ONEGO MISSISSIPPI PCTF PAISES BAIXOS 116.26 6693.0 TERMINAL DE CONTENTORES SUL BILBAO PARAMARIBO OREY COMERCIO E NAVEGACAO CARGA GERAL N.D.
2020/04/20 00:00 ESC202000730 000730 9624847 LADY AMALIA PCNV PAISES BAIXOS 88.0 2544.0 DOCA 2 NORTE 4.0 5.5 PAPENBURG ROTTERDAM SOFRENA - SOC. AFRET. NAVEGACAO CARGA GERAL N.D.
2020/04/20 06:00 ESC202000846 000847 9237371 WEC VERMEER 5BLR3 CHIPRE 134.44 9981.0 TERMINAL DE CONTENTORES SUL 8.0 8.0 SINES VIGO WEC LINES - IBERO PORTUGAL PORTA-CONTENTORES
2020/04/20 06:00 ESC202000844 000845 9315006 ELAN PHCZ PAISES BAIXOS 149.14 11662.0 TERMINAL DE CONTENTORES SUL 8.0 8.0 SETÚBAL TILBURY WEC LINES - IBERO PORTUGAL PORTA-CONTENTORES
2020/04/21 07:00 ESC202000828 000830 9465411 BLUE MASTER II V7ZQ4 ILHAS MARSHALL 199.8 30469.0 TERMINAL DE CONTENTORES SUL 11.0 11.0 BILBAO VIGO MCPAS - AGÊNCIA DE NAVEGAÇÃO, S.A. MISTO C.GERAL/CONTEN.
2020/04/23 06:00 ESC202000823 000824 9514755 NORDIC HAMBURG 5BXT2 CHIPRE 151.72 10585.0 TERMINAL DE CONTENTORES NORTE LISBOA LONDON One Shipping, Unipessoal Lda PORTA-CONTENTORES
2020/04/23 07:00 ESC202000841 000842 9242285 AURETTE A 9HA5100 MALTA 154.53 14236.0 TERMINAL DE CONTENTORES SUL 6.0 6.0 ALGECIRAS LISBOA PMAR - Navegação, Lda PORTA-CONTENTORES
2020/04/23 16:00 ESC202000731 000731 9483695 NORDICA PCSK PAISES BAIXOS 151.72 10318.0 TERMINAL DE CONTENTORES SUL LISBOA TILBURY GARLAND NAVEGACAO PORTA-CONTENTORES
2020/04/24 07:00 ESC202000836 000837 9376050 WILHELM 5BJB2 CHIPRE 134.44 9981.0 TERMINAL DE CONTENTORES SUL 6.5 6.5 VIGO TANGER MED MACANDREWS - NAVEGACAO E TRANSITO, LD PORTA-CONTENTORES
2020/04/24 08:00 ESC202000733 000733 9356115 SAFMARINE NUBA VRLA5 HONG KONG 210.54 25904.0 TERMINAL DE CONTENTORES SUL ALGECIRAS LISBOA MAERSK PORTUGAL - AGENTES TRANSPORTES INTERN PORTA-CONTENTORES
2020/04/24 23:00 ESC202000821 000822 9276341 X-PRESS MONTE BIANCO 9HA3446 MALTA 133.58 6434.0 TERMINAL DE CONTENTORES SUL VIGO CASABLANCA GARLAND NAVEGACAO PORTA-CONTENTORES
2020/04/25 06:00 ESC202000701 000701 9242560 AMELIE BORCHARD V2GC4 ANTIGUA E BARBUDA 134.44 9981.0 TERMINAL DE CONTENTORES NORTE 7.0 7.0 CASTELLÓN DE LA PLANA DUBLIN MARMEDSA - AGENCIA MARITIMA, LDA PORTA-CONTENTORES
2020/04/25 06:00 ESC202000702 000702 9354416 JUDITH BORCHARD CQAU6 PORTUGAL 134.44 9962.0 TERMINAL DE CONTENTORES NORTE 7.0 7.0 LIVERPOOL CASTELLÓN DE LA PLANA MARMEDSA - AGENCIA MARITIMA, LDA PORTA-CONTENTORES
2020/04/26 07:00 ESC202000726 000726 9448671 BEATRIZ B 5BUB4 CHIPRE 158.08 12514.0 TERMINAL DE CONTENTORES NORTE 8.5 8.5 BILBAO LISBOA PORTMAR PORTA-CONTENTORES
2020/04/30 07:00 ESC202000795 000796 9385532 DIANE A TCRP3 TURQUIA 184.0 17687.0 TERMINAL DE CONTENTORES SUL 7.0 7.0 ALGECIRAS LISBOA PMAR - Navegação, Lda PORTA-CONTENTORES
2020/05/01 08:00 ESC202000734 000734 9356103 SAFMARINE NAKURU VRKZ8 HONG KONG 210.54 25904.0 TERMINAL DE CONTENTORES SUL ALGECIRAS LISBOA MAERSK PORTUGAL - AGENTES TRANSPORTES INTERN PORTA-CONTENTORES
2020/05/01 11:00 ESC201901377 001388 8802868 SEA SPIRIT C6PJ8 ILHAS BAAMAS 90.36 4200.0 DOCA 1 NORTE - PASSAGEIROS 5.2 5.2 LISBOA UNKOWN LOCATION WILHELMSEN SHIPS SERVICE PORTUGAL, S.A. CRUZEIROS
2020/05/01 23:00 ESC202000827 000829 9328651 X-PRESS VESUVIO 9HA3961 MALTA 133.6 6454.0 TERMINAL DE CONTENTORES SUL VIGO CASABLANCA GARLAND NAVEGACAO PORTA-CONTENTORES
2020/05/05 07:00 ESC201800774 000769 9703150 SEVEN SEAS EXPLORER V7QK9 ILHAS MARSHALL 224.02 55254.0 TERMINAL DE CRUZEIROS 8.0 8.0 LISBOA LA CORUÑA UNIVERSAL MARITIMA, LDA CRUZEIROS
2020/05/07 07:00 ESC201802477 002483 9221554 AIDAVITA IBNP ITALIA 202.85 42289.0 TERMINAL DE CRUZEIROS 7.6 7.6 LA CORUÑA LISBOA JAMES RAWES-NAVEGAÇÃO, LDA CRUZEIROS
2020/05/07 16:00 ESC202000822 000823 9483695 NORDICA PCSK PAISES BAIXOS 151.72 10318.0 TERMINAL DE CONTENTORES SUL LISBOA TILBURY GARLAND NAVEGACAO PORTA-CONTENTORES
2020/05/08 08:00 ESC202000735 000735 9356115 SAFMARINE NUBA VRLA5 HONG KONG 210.54 25904.0 TERMINAL DE CONTENTORES SUL ALGECIRAS LISBOA MAERSK PORTUGAL - AGENTES TRANSPORTES INTERN PORTA-CONTENTORES
2020/05/09 08:00 ESC201802156 002165 9362542 AIDABELLA ICGS ITALIA 251.89 69203.0 TERMINAL DE CRUZEIROS 7.6 7.6 CADIZ FERROL JAMES RAWES-NAVEGAÇÃO, LDA CRUZEIROS
2020/05/10 11:30 ESC201801075 001077 9502506 LE BOREAL FLSY FRANCA 140.0 10944.0 DOCA 1 NORTE - PASSAGEIROS 7.0 7.0 LISBOA LA CORUÑA JAMES RAWES-NAVEGAÇÃO, LDA CRUZEIROS
2020/05/12 07:00 ESC201900022 000022 9192179 SILVER WHISPER C6FN7 ILHAS BAAMAS 186.0 28258.0 DOCA 1 NORTE - PASSAGEIROS 7.0 7.0 LISBOA PORTIMAO UNIVERSAL MARITIMA, LDA CRUZEIROS
2020/05/15 07:00 ESC201801295 001298 9678408 MEIN SCHIFF 4 9HA3513 MALTA 293.6 99526.0 TERMINAL DE CRUZEIROS 8.0 8.0 LISBOA LA CORUÑA UNIVERSAL MARITIMA, LDA CRUZEIROS
2020/05/15 08:00 ESC202000736 000736 9356103 SAFMARINE NAKURU VRKZ8 HONG KONG 210.54 25904.0 TERMINAL DE CONTENTORES SUL ALGECIRAS LISBOA MAERSK PORTUGAL - AGENTES TRANSPORTES INTERN PORTA-CONTENTORES
2020/05/15 08:00 ESC201901255 001265 9210220 AZAMARA PURSUIT 9HA4800 MALTA 181.0 30277.0 DOCA 1 NORTE - PASSAGEIROS 6.0 6.0 LISBOA BILBAO UNIVERSAL MARITIMA, LDA CRUZEIROS
2020/05/17 07:00 ESC201800015 000016 7915096 OCEAN DREAM 3EWW6 PANAMA 204.76 35265.0 TERMINAL DE CRUZEIROS GIBRALTAR LE HAVRE GARLAND NAVEGACAO CRUZEIROS
2020/05/17 08:00 ESC201801506 001513 9438066 MARINA V7SK2 ILHAS MARSHALL 239.3 66084.0 DOCA 1 NORTE - PASSAGEIROS 7.0 7.0 LISBOA LA CORUÑA UNIVERSAL MARITIMA, LDA CRUZEIROS
2020/05/19 08:00 ESC201801761 001770 7304314 ALBATROS C6CN4 ILHAS BAAMAS 205.46 28518.0 TERMINAL DE CRUZEIROS MÁLAGA FERROL GARLAND NAVEGACAO CRUZEIROS
2020/05/21 08:00 ESC201902424 002448 9171292 SEA CLOUD II 7042 MALTA 117.0 3849.0 DOCA 1 NORTE - PASSAGEIROS 6.0 6.0 LISBOA VIGO BURMESTER STUVE CRUZEIROS
2020/05/22 08:00 ESC202000737 000737 9356115 SAFMARINE NUBA VRLA5 HONG KONG 210.54 25904.0 TERMINAL DE CONTENTORES SUL ALGECIRAS LISBOA MAERSK PORTUGAL - AGENTES TRANSPORTES INTERN PORTA-CONTENTORES
2020/05/23 08:00 ESC201902111 002132 9835719 WORLD EXPLORER NA PORTUGAL 126.0 9271.0 DOCA 1 NORTE - PASSAGEIROS 4.0 4.0 PORTIMAO LA CORUÑA NAVEX - EMP. PORT. DE NAVEGACAO CRUZEIROS
2020/05/26 08:00 ESC201801284 001287 9333175 VENTURA ZCDT2 BERMUDAS 288.61 116017.0 TERMINAL DE CRUZEIROS 8.1 8.1 ST PETER PORT LISBOA JAMES RAWES-NAVEGAÇÃO, LDA CRUZEIROS
2020/05/27 09:00 ESC201902051 002070 9657090 VARIETY VOYAGER 9HA3073 MALTA 65.95 1593.0 DOCA 1 NORTE - PASSAGEIROS 4.0 4.0 LISBOA VIGO NAVEX - EMP. PORT. DE NAVEGACAO CRUZEIROS
2020/05/29 08:00 ESC202000738 000738 9356103 SAFMARINE NAKURU VRKZ8 HONG KONG 210.54 25904.0 TERMINAL DE CONTENTORES SUL ALGECIRAS LISBOA MAERSK PORTUGAL - AGENTES TRANSPORTES INTERN PORTA-CONTENTORES
2020/05/30 06:00 ESC201900453 000454 7904889 BERLIN 9HA2295 MALTA 139.3 9570.0 DOCA 1 NORTE - PASSAGEIROS 5.0 5.0 FARO LA CORUÑA JAMES RAWES-NAVEGAÇÃO, LDA CRUZEIROS
2020/05/30 07:00 ESC201902395 002419 9817133 HANSEATIC NATURE C6ED6 ILHAS BAAMAS 139.0 15651.0 TERMINAL DE CRUZEIROS 6.0 6.0 VILA DO PORTO VIGO BURMESTER STUVE CRUZEIROS
2020/05/30 09:00 ESC201802442 002447 9479852 COSTA FAVOLOSA ICPK ITALIA 289.65 113216.0 TERMINAL DE CRUZEIROS 8.2 8.2 LISBOA ST PETER PORT JAMES RAWES-NAVEGAÇÃO, LDA CRUZEIROS
2020/05/31 08:00 ESC201901445 001456 9483126 SEABOURN QUEST C6YZ5 ILHAS BAAMAS 198.19 32477.0 TERMINAL DE CRUZEIROS 7.6 7.6 LISBOA LA CORUÑA JAMES RAWES-NAVEGAÇÃO, LDA CRUZEIROS
2020/06/01 07:00 ESC201800720 000715 9210218 AZAMARA QUEST 9HOM8 MALTA 181.0 30277.0 TERMINAL DE CRUZEIROS 8.0 8.0 LISBOA BILBAO UNIVERSAL MARITIMA, LDA CRUZEIROS
2020/06/04 08:00 ESC201801285 001288 9333175 VENTURA ZCDT2 BERMUDAS 288.61 116017.0 TERMINAL DE CRUZEIROS 8.1 8.1 ST PETER PORT LISBOA JAMES RAWES-NAVEGAÇÃO, LDA CRUZEIROS
2020/06/05 09:30 ESC201901768 001783 9797371 SCENIC ECLIPSE ? MALTA 165.7 22498.0 DOCA 1 NORTE - PASSAGEIROS 6.0 6.0 LISBOA BREST MARMEDSA - AGENCIA MARITIMA, LDA CRUZEIROS
2020/06/08 07:00 ESC201901396 001408 9066667 CRYSTAL SYMPHONY C6MY5 ILHAS BAAMAS 238.01 51044.0 TERMINAL DE CRUZEIROS 8.0 8.0 LISBOA BAYONNE PINTO BASTO IV-SERVICOS MARITIMOS, LDA. CRUZEIROS
2020/06/09 08:00 ESC201902113 002134 9871529 WORLD VOYAGER n/d PORTUGAL 126.0 9315.0 DOCA 1 NORTE - PASSAGEIROS 4.0 4.0 VIANA DO CASTELO LA CORUÑA NAVEX - EMP. PORT. DE NAVEGACAO CRUZEIROS
2020/06/11 07:00 ESC201902378 002404 8708672 CORINTHIAN 9HUT9 MALTA 88.32 4077.0 DOCA 1 NORTE - PASSAGEIROS 4.05 4.05 LISBOA VIGO PORTMAR CRUZEIROS
2020/06/14 07:00 ESC201802060 002069 7108930 BLACK WATCH C6RS5 ILHAS BAAMAS 205.47 28613.0 TERMINAL DE CRUZEIROS 7.2 7.2 UNKOWN LOCATION UNKOWN LOCATION WILHELMSEN SHIPS SERVICE PORTUGAL, S.A. CRUZEIROS
2020/06/15 13:00 ESC201802843 002850 8700785 WIND SURF C6IO6 ILHAS BAAMAS 187.2 14745.0 DOCA 1 NORTE - PASSAGEIROS 5.2 5.2 VIGO LISBOA PORTMAR CRUZEIROS
2020/06/23 08:00 ESC201801286 001289 9333175 VENTURA ZCDT2 BERMUDAS 288.61 116017.0 TERMINAL DE CRUZEIROS 8.1 8.1 ST PETER PORT LISBOA JAMES RAWES-NAVEGAÇÃO, LDA CRUZEIROS
2020/06/26 07:00 ESC201900018 000018 9437866 SILVER SPIRIT C6XU6 ILHAS BAAMAS 210.7 39444.0 DOCA 1 NORTE - PASSAGEIROS 7.0 7.0 LISBOA PORTIMAO UNIVERSAL MARITIMA, LDA CRUZEIROS
2020/06/26 08:00 ESC201801657 001665 9221279 ZUIDERDAM PBIG PAISES BAIXOS 285.42 82820.0 TERMINAL DE CRUZEIROS 8.0 8.0 LISBOA LA CORUÑA JAMES RAWES-NAVEGAÇÃO, LDA CRUZEIROS
2020/06/27 09:00 ESC201801713 001720 9200938 NAUTICA V7DM4 ILHAS MARSHALL 181.0 30277.0 TERMINAL DE CRUZEIROS 8.0 8.0 LISBOA LA CORUÑA UNIVERSAL MARITIMA, LDA CRUZEIROS
2020/06/30 08:00 ESC201902723 002754 7225910 AEGEAN ODYSSEY HOBW PANAMA 140.5 12094.0 DOCA 1 NORTE - PASSAGEIROS 6.5 6.5 TANGIER BILBAO JAMES RAWES-NAVEGAÇÃO, LDA CRUZEIROS
2020/07/11 09:00 ESC201802829 002836 9008598 STAR LEGEND C6FR6 ILHAS BAAMAS 135.0 9961.0 DOCA 1 NORTE - PASSAGEIROS 5.7 5.7 BILBAO LISBOA PORTMAR CRUZEIROS
2020/07/12 07:00 ESC201902394 002418 9616230 EUROPA 2 9HA3283 MALTA 225.25 42830.0 TERMINAL DE CRUZEIROS 7.0 7.0 BILBAO LISBOA BURMESTER STUVE CRUZEIROS
2020/07/14 08:00 ESC201801287 001290 9333175 VENTURA ZCDT2 BERMUDAS 288.61 116017.0 TERMINAL DE CRUZEIROS 8.1 8.1 ST PETER PORT LISBOA JAMES RAWES-NAVEGAÇÃO, LDA CRUZEIROS
2020/07/26 08:00 ESC201900877 000883 9192179 SILVER WHISPER C6FN7 ILHAS BAAMAS 186.0 28258.0 TERMINAL DE CRUZEIROS 7.0 7.0 LA CORUÑA LISBOA UNIVERSAL MARITIMA, LDA CRUZEIROS
2020/07/28 08:00 ESC201901765 001780 9192179 SILVER WHISPER C6FN7 ILHAS BAAMAS 186.0 28258.0 TERMINAL DE CRUZEIROS 6.0 6.0 LISBOA MÁLAGA UNIVERSAL MARITIMA, LDA CRUZEIROS
2020/08/01 11:00 ESC201801762 001771 8700280 AMERA C6EA7 ILHAS BAAMAS 204.0 38848.0 TERMINAL DE CRUZEIROS PORTIMAO VILLAGARCÍA (DE AROUSA) GARLAND NAVEGACAO CRUZEIROS
2020/08/04 08:00 ESC201801296 001299 9678408 MEIN SCHIFF 4 9HA3513 MALTA 293.6 99526.0 TERMINAL DE CRUZEIROS 8.0 8.0 LA CORUÑA LISBOA UNIVERSAL MARITIMA, LDA CRUZEIROS
2020/08/05 08:00 ESC201901522 001535 9333175 VENTURA ZCDT2 BERMUDAS 288.61 116017.0 TERMINAL DE CRUZEIROS 8.1 8.1 LISBOA ST PETER PORT JAMES RAWES-NAVEGAÇÃO, LDA CRUZEIROS
2020/08/11 08:00 ESC202000217 000217 9807085 SEVEN SEAS SPLENDOR 00000 ILHAS MARSHALL 223.0 54000.0 TERMINAL DE CRUZEIROS 6.0 6.0 LISBOA LA CORUÑA UNIVERSAL MARITIMA, LDA CRUZEIROS
2020/08/22 08:00 ESC201901149 001162 9483712 SEA CLOUD SPIRIT P12H1 MALTA 135.7 4228.0 DOCA 1 NORTE - PASSAGEIROS 6.0 6.0 VIGO LISBOA BURMESTER STUVE PASSAGEIROS
2020/08/22 08:00 ESC201902114 002135 9871529 WORLD VOYAGER n/d PORTUGAL 126.0 9315.0 DOCA 1 NORTE - PASSAGEIROS 4.0 4.0 LA CORUÑA LISBOA NAVEX - EMP. PORT. DE NAVEGACAO CRUZEIROS
2020/08/24 07:00 ESC201800669 000668 9064126 SEVEN SEAS NAVIGATOR C6ZI9 ILHAS BAAMAS 170.69 28803.0 TERMINAL DE CRUZEIROS 7.0 7.0 FERROL LISBOA UNIVERSAL MARITIMA, LDA CRUZEIROS
2020/08/25 08:00 ESC201902724 002755 7225910 AEGEAN ODYSSEY HOBW PANAMA 140.5 12094.0 DOCA 1 NORTE - PASSAGEIROS 6.5 6.5 BILBAO TANGIER JAMES RAWES-NAVEGAÇÃO, LDA CRUZEIROS
2020/08/25 08:00 ESC201801289 001292 9333175 VENTURA ZCDT2 BERMUDAS 288.61 116017.0 TERMINAL DE CRUZEIROS 8.1 8.1 ST PETER PORT LISBOA JAMES RAWES-NAVEGAÇÃO, LDA CRUZEIROS
2020/08/27 08:00 ESC201902487 002511 9171292 SEA CLOUD II 7042 MALTA 117.0 3849.0 DOCA 1 NORTE - PASSAGEIROS 6.0 6.0 VIGO LISBOA BURMESTER STUVE CRUZEIROS
2020/08/29 07:45 ESC201900454 000455 7904889 BERLIN 9HA2295 MALTA 139.3 9570.0 DOCA 1 NORTE - PASSAGEIROS 5.0 5.0 LISBOA LA CORUÑA JAMES RAWES-NAVEGAÇÃO, LDA CRUZEIROS
2020/08/29 08:00 ESC201801656 001664 9102992 VEENDAM C6NL6 ILHAS BAAMAS 219.21 55451.0 TERMINAL DE CRUZEIROS 7.2 7.2 BORDEAUX LISBOA JAMES RAWES-NAVEGAÇÃO, LDA CRUZEIROS
2020/09/06 08:00 ESC202000119 000119 9807085 SEVEN SEAS SPLENDOR 00000 ILHAS MARSHALL 223.0 54000.0 TERMINAL DE CRUZEIROS 6.0 6.0 FERROL LISBOA UNIVERSAL MARITIMA, LDA CRUZEIROS
2020/09/07 07:00 ESC201801732 001741 9189421 CELEBRITY INFINITY 9HJD9 MALTA 294.0 90940.0 TERMINAL DE CRUZEIROS 8.0 8.0 LA CORUÑA LISBOA UNIVERSAL MARITIMA, LDA CRUZEIROS
2020/09/08 07:00 ESC201801513 001520 9187899 SIRENA V7RX6 ILHAS MARSHALL 181.0 30277.0 TERMINAL DE CRUZEIROS 8.0 8.0 LISBOA FERROL UNIVERSAL MARITIMA, LDA CRUZEIROS
2020/09/10 07:00 ESC201800721 000716 9210220 AZAMARA PURSUIT 9HA4800 MALTA 181.0 30277.0 TERMINAL DE CRUZEIROS 8.0 8.0 LA CORUÑA LISBOA UNIVERSAL MARITIMA, LDA CRUZEIROS
2020/09/11 07:00 ESC201801733 001742 9189421 CELEBRITY INFINITY 9HJD9 MALTA 294.0 90940.0 TERMINAL DE CRUZEIROS 8.0 8.0 LISBOA LA CORUÑA UNIVERSAL MARITIMA, LDA CRUZEIROS
2020/09/11 08:30 ESC201900358 000360 8802882 HEBRIDEAN SKY C6BG2 ILHAS BAAMAS 90.36 4200.0 DOCA 1 NORTE - PASSAGEIROS 4.0 4.0 LA CORUÑA LISBOA JAMES RAWES-NAVEGAÇÃO, LDA CRUZEIROS
2020/09/12 08:00 ESC201801898 001906 9479864 COSTA FASCINOSA ICPO ITALIA 289.58 113321.0 TERMINAL DE CRUZEIROS 8.1 8.1 LA CORUÑA LISBOA JAMES RAWES-NAVEGAÇÃO, LDA CRUZEIROS
2020/09/14 04:00 ESC201802433 002439 5383304 ASTORIA CQRV PORTUGAL 160.08 16144.0 DOCA 1 NORTE - PASSAGEIROS 7.6 7.6 CADIZ LISBOA JAMES RAWES-NAVEGAÇÃO, LDA CRUZEIROS
2020/09/14 08:00 ESC201900517 000519 9479852 COSTA FAVOLOSA ICPK ITALIA 289.65 113216.0 TERMINAL DE CRUZEIROS 8.1 8.1 LA CORUÑA LISBOA JAMES RAWES-NAVEGAÇÃO, LDA CRUZEIROS
2020/09/15 08:00 ESC201800905 000903 9320099 MSC ORCHESTRA 3EJF3 PANAMA 293.8 92409.0 TERMINAL DE CRUZEIROS LE HAVRE LISBOA MEDITERRANEAN SHIPPING CO. CRUZEIROS
2020/09/17 07:00 ESC201902379 002405 8708672 CORINTHIAN 9HUT9 MALTA 88.32 4077.0 DOCA 1 NORTE - PASSAGEIROS 4.0 4.0 VIGO LISBOA PORTMAR CRUZEIROS
2020/09/18 07:00 ESC201800722 000717 9210218 AZAMARA QUEST 9HOM8 MALTA 181.0 30277.0 TERMINAL DE CRUZEIROS 8.0 8.0 BILBAO LISBOA UNIVERSAL MARITIMA, LDA CRUZEIROS
2020/09/18 08:00 ESC201900417 000419 6602898 OCEAN MAJESTY CQSC PORTUGAL 135.3 10417.0 DOCA 1 NORTE - PASSAGEIROS 6.4 6.4 CORCUBIÓN PORTIMAO WILHELMSEN SHIPS SERVICE PORTUGAL, S.A. CRUZEIROS
2020/09/19 10:00 ESC201801704 001711 9112789 AIDACARA IBNR ITALIA 193.34 38557.0 TERMINAL DE CRUZEIROS 7.6 7.6 LA CORUÑA LISBOA JAMES RAWES-NAVEGAÇÃO, LDA CRUZEIROS
2020/09/22 07:00 ESC201802064 002073 7108930 BLACK WATCH C6RS5 ILHAS BAAMAS 205.47 28613.0 TERMINAL DE CRUZEIROS 7.2 7.2 UNKOWN LOCATION UNKOWN LOCATION WILHELMSEN SHIPS SERVICE PORTUGAL, S.A. CRUZEIROS
2020/09/24 06:00 ESC201801771 9814052 LE DUMONT-D'URVILLE FLDS FRANCA 131.46 9988.0 DOCA 1 NORTE - PASSAGEIROS 6.5 6.5 CEE LISBOA JAMES RAWES-NAVEGAÇÃO, LDA CRUZEIROS
2020/09/24 07:30 ESC201901444 9852418 LE BELLOT LBLOT FRANCA 131.4 9900.0 TERMINAL DE CRUZEIROS 7.1 7.1 VIGO LISBOA JAMES RAWES-NAVEGAÇÃO, LDA NAVIO EM CONSTRUÇÃO
2020/09/24 08:00 ESC201701843 001826 9650420 VIKING SKY LAYU7 NORUEGA 227.2 47842.0 TERMINAL DE CRUZEIROS 8.0 8.0 FALMOUTH MÁLAGA JAMES RAWES-NAVEGAÇÃO, LDA CRUZEIROS
2020/09/24 08:30 ESC201900021 000021 9437866 SILVER SPIRIT C6XU6 ILHAS BAAMAS 210.7 39444.0 DOCA 1 NORTE - PASSAGEIROS 7.0 7.0 PORTIMAO LISBOA UNIVERSAL MARITIMA, LDA CRUZEIROS
2020/09/25 08:00 ESC201901218 001231 9764958 SEABOURN OVATION C6CV5 ILHAS BAAMAS 210.3 41865.0 TERMINAL DE CRUZEIROS 8.0 8.0 LA CORUÑA LISBOA JAMES RAWES-NAVEGAÇÃO, LDA CRUZEIROS
2020/09/26 09:00 ESC201801772 9814052 LE DUMONT-D'URVILLE FLDS FRANCA 131.46 9988.0 DOCA 1 NORTE - PASSAGEIROS 6.5 6.5 LISBOA CEE JAMES RAWES-NAVEGAÇÃO, LDA CRUZEIROS
2020/09/27 07:00 ESC201801734 001743 9189421 CELEBRITY INFINITY 9HJD9 MALTA 294.0 90940.0 TERMINAL DE CRUZEIROS 8.0 8.0 LA CORUÑA LISBOA UNIVERSAL MARITIMA, LDA CRUZEIROS
2020/09/28 06:00 ESC201900638 000640 7915096 OCEAN DREAM 3EWW6 PANAMA 204.76 35265.0 DOCA 1 NORTE - PASSAGEIROS UNKOWN LOCATION UNKOWN LOCATION GARLAND NAVEGACAO CRUZEIROS
2020/09/28 08:00 ESC201902381 002407 9008598 STAR LEGEND C6FR6 ILHAS BAAMAS 135.0 9961.0 DOCA 1 NORTE - PASSAGEIROS 5.7 5.7 BILBAO LISBOA PORTMAR CRUZEIROS
2020/09/29 07:00 ESC201800775 000770 9703150 SEVEN SEAS EXPLORER V7QK9 ILHAS MARSHALL 224.02 55254.0 TERMINAL DE CRUZEIROS 8.0 8.0 LA CORUÑA LISBOA UNIVERSAL MARITIMA, LDA CRUZEIROS
2020/09/29 07:00 ESC201702071 9796262 VIKING JUPITER LAYP7 NORUEGA 228.26 47861.0 TERMINAL DE CRUZEIROS 8.1 8.1 FALMOUTH MÁLAGA JAMES RAWES-NAVEGAÇÃO, LDA CRUZEIROS
2020/10/01 07:00 ESC201801507 001514 9438066 MARINA V7SK2 ILHAS MARSHALL 239.3 66084.0 DOCA 1 NORTE - PASSAGEIROS 7.0 7.0 FERROL LISBOA UNIVERSAL MARITIMA, LDA CRUZEIROS
2020/10/01 07:00 ESC201801737 001746 9189421 CELEBRITY INFINITY 9HJD9 MALTA 294.0 90940.0 TERMINAL DE CRUZEIROS 8.0 8.0 LISBOA LA CORUÑA UNIVERSAL MARITIMA, LDA CRUZEIROS
2020/10/01 09:00 ESC201802479 002484 9221554 AIDAVITA IBNP ITALIA 202.85 42289.0 Terminal Multiusos de Leixões (Molhe Sul) 7.6 7.6 LA CORUÑA LISBOA JAMES RAWES-NAVEGAÇÃO, LDA CRUZEIROS
2020/10/02 15:00 ESC201902900 002929 9657090 VARIETY VOYAGER 9HA3073 MALTA 65.95 1593.0 DOCA 1 NORTE - PASSAGEIROS 4.0 4.0 VIGO LISBOA NAVEX - EMP. PORT. DE NAVEGACAO CRUZEIROS
2020/10/03 06:00 ESC201901293 001304 9187899 SIRENA V7RX6 ILHAS MARSHALL 181.0 30277.0 DOCA 1 NORTE - PASSAGEIROS 7.0 7.0 VILLAGARCÍA (DE AROUSA) LISBOA UNIVERSAL MARITIMA, LDA CRUZEIROS
2020/10/03 07:00 ESC201802437 9852420 LE JACQUES CARTIER LSVL FRANCA 131.4 9900.0 DOCA 1 NORTE - PASSAGEIROS 7.6 7.6 VIGO LISBOA JAMES RAWES-NAVEGAÇÃO, LDA NAVIO EM CONSTRUÇÃO
2020/10/03 08:00 ESC201902527 002551 9813084 FRIDTJOF NANSEN na NORUEGA 140.0 20000.0 DOCA 1 NORTE - PASSAGEIROS LA CORUÑA LISBOA OREY COMERCIO E NAVEGACAO CRUZEIROS
2020/10/05 07:00 ESC201901492 001505 999999 ZENITH AAAAAA JAPAO 208.0 47413.0 DOCA 1 NORTE - PASSAGEIROS VALENCIA ST NAZAIRE GARLAND NAVEGACAO CRUZEIROS
2020/10/05 08:00 ESC201900310 000312 9424883 AZURA ZCEE2 BERMUDAS 289.61 115055.0 TERMINAL DE CRUZEIROS 8.1 8.1 LA CORUÑA CADIZ JAMES RAWES-NAVEGAÇÃO, LDA CRUZEIROS
2020/10/06 08:00 ESC201801471 001477 9800000 SPIRIT OF ADVENTURE SPDAD MALTA 236.0 57600.0 TERMINAL DE CRUZEIROS 7.6 7.6 MARIN, PONTEVEDRA BREST JAMES RAWES-NAVEGAÇÃO, LDA CRUZEIROS
2020/10/06 11:00 ESC201802172 002181 8700280 AMERA C6EA7 ILHAS BAAMAS 204.0 38848.0 TERMINAL DE CRUZEIROS LA CORUÑA MÁLAGA GARLAND NAVEGACAO CRUZEIROS
2020/10/07 08:00 ESC201801292 001295 9333175 VENTURA ZCDT2 BERMUDAS 288.61 116017.0 TERMINAL DE CRUZEIROS 8.1 8.1 ST PETER PORT LISBOA JAMES RAWES-NAVEGAÇÃO, LDA CRUZEIROS
2020/10/09 07:00 ESC201902382 002408 9159830 CLIO 9HA4306 MALTA 100.26 3504.0 DOCA 1 NORTE - PASSAGEIROS 3.4 3.4 VIGO LISBOA PORTMAR CRUZEIROS
2020/10/10 06:00 ESC201801773 9814052 LE DUMONT-D'URVILLE FLDS FRANCA 131.46 9988.0 DOCA 1 NORTE - PASSAGEIROS 6.5 6.5 CEE LISBOA JAMES RAWES-NAVEGAÇÃO, LDA CRUZEIROS
2020/10/10 08:00 ESC201801655 001663 9122552 ROTTERDAM PDGS PAISES BAIXOS 237.95 61849.0 TERMINAL DE CRUZEIROS 8.0 8.0 LA CORUÑA LISBOA JAMES RAWES-NAVEGAÇÃO, LDA CRUZEIROS
2020/10/11 00:00 ESC201902115 002136 9835719 WORLD EXPLORER NA PORTUGAL 126.0 9271.0 DOCA 1 NORTE - PASSAGEIROS 4.0 4.0 LA CORUÑA LISBOA NAVEX - EMP. PORT. DE NAVEGACAO CRUZEIROS
2020/10/12 08:00 ESC201801899 001907 9725433 VIKING SUN LAYT7 NORUEGA 228.33 47842.0 TERMINAL DE CRUZEIROS 8.0 8.0 FALMOUTH MÁLAGA JAMES RAWES-NAVEGAÇÃO, LDA CRUZEIROS
2020/10/13 07:00 ESC201802061 002070 7108930 BLACK WATCH C6RS5 ILHAS BAAMAS 205.47 28613.0 TERMINAL DE CRUZEIROS UNKOWN LOCATION UNKOWN LOCATION WILHELMSEN SHIPS SERVICE PORTUGAL, S.A. CRUZEIROS
2020/10/13 08:00 ESC201801763 001772 7304314 ALBATROS C6CN4 ILHAS BAAMAS 205.46 28518.0 TERMINAL DE CRUZEIROS FERROL LISBOA GARLAND NAVEGACAO CRUZEIROS
2020/10/14 07:00 ESC201902493 002517 8907424 BREMEN C6JC3 ILHAS BAAMAS 111.51 6752.0 TERMINAL DE CRUZEIROS 6.0 6.0 VILLAGARCÍA (DE AROUSA) FIGUEIRA DA FOZ BURMESTER STUVE CRUZEIROS
2020/10/14 07:00 ESC201901990 002010 9451094 CELEBRITY SILHOUETTE 9HA2583 MALTA 315.0 122210.0 TERMINAL DE CRUZEIROS 8.6 8.6 UNKOWN LOCATION UNKOWN LOCATION UNIVERSAL MARITIMA, LDA CRUZEIROS
2020/10/14 07:00 ESC201902701 002731 8907424 BREMEN C6JC3 ILHAS BAAMAS 111.51 6752.0 Terminal Multiusos de Leixões (Molhe Sul) 6.0 6.0 UNKOWN LOCATION UNKOWN LOCATION UNIVERSAL MARITIMA, LDA CRUZEIROS
2020/10/14 08:00 ESC201801714 001721 9200938 NAUTICA V7DM4 ILHAS MARSHALL 181.0 30277.0 DOCA 1 NORTE - PASSAGEIROS 8.0 8.0 LA CORUÑA LISBOA UNIVERSAL MARITIMA, LDA CRUZEIROS
2020/10/18 07:00 ESC201902425 002449 9817145 HANSEATIC INSPIRATION C6EJ3 ILHAS BAAMAS 138.76 15651.0 DOCA 1 NORTE - PASSAGEIROS 5.75 5.75 LA CORUÑA LISBOA BURMESTER STUVE CRUZEIROS
2020/10/19 12:00 ESC201902512 002536 9230402 ISLAND PRINCESS ZCDG4 BERMUDAS 294.0 92822.0 TERMINAL DE CRUZEIROS 8.1 8.1 LA CORUÑA LISBOA JAMES RAWES-NAVEGAÇÃO, LDA CRUZEIROS
2020/10/21 08:00 ESC201802200 002209 8201480 ARTANIA C6CY5 ILHAS BAAMAS 230.61 44656.0 TERMINAL DE CRUZEIROS VILLAGARCÍA (DE AROUSA) PORTO SANTO ISLAND GARLAND NAVEGACAO CRUZEIROS
2020/10/27 07:00 ESC201801298 001301 8807088 HORIZON 9HYZ9 MALTA 208.0 47427.0 TERMINAL DE CRUZEIROS 8.0 8.0 UNKOWN LOCATION UNKOWN LOCATION UNIVERSAL MARITIMA, LDA CRUZEIROS
2020/10/27 08:00 ESC201901991 002011 9451094 CELEBRITY SILHOUETTE 9HA2583 MALTA 315.0 122210.0 TERMINAL DE CRUZEIROS 8.6 8.6 UNKOWN LOCATION UNKOWN LOCATION UNIVERSAL MARITIMA, LDA CRUZEIROS
2020/10/28 08:00 ESC201801294 001297 9333175 VENTURA ZCDT2 BERMUDAS 288.61 116017.0 TERMINAL DE CRUZEIROS 8.1 8.1 LISBOA CHERBOURG JAMES RAWES-NAVEGAÇÃO, LDA CRUZEIROS
2020/10/29 08:00 ESC201801985 001993 9230402 ISLAND PRINCESS ZCDG4 BERMUDAS 294.0 92822.0 TERMINAL DE CRUZEIROS 8.1 8.1 LISBOA LA CORUÑA JAMES RAWES-NAVEGAÇÃO, LDA CRUZEIROS
2020/11/02 08:00 ESC201801764 001773 7304314 ALBATROS C6CN4 ILHAS BAAMAS 205.46 28518.0 TERMINAL DE CRUZEIROS FERROL LISBOA GARLAND NAVEGACAO CRUZEIROS
2020/11/05 07:00 ESC201901078 001090 8611398 COLUMBUS C6CP4 ILHAS BAAMAS 245.6 63786.0 TERMINAL DE CRUZEIROS 8.0 8.0 LA CORUÑA LISBOA JAMES RAWES-NAVEGAÇÃO, LDA CRUZEIROS
2020/11/05 07:00 ESC201802062 002071 8506294 BALMORAL C6II4 ILHAS BAAMAS 217.91 43537.0 DOCA 1 NORTE - PASSAGEIROS 7.2 7.2 UNKOWN LOCATION UNKOWN LOCATION WILHELMSEN SHIPS SERVICE PORTUGAL, S.A. CRUZEIROS
2020/11/06 08:00 ESC201802453 002458 9490040 AIDASOL ICPE ITALIA 253.33 71304.0 TERMINAL DE CRUZEIROS 7.9 7.9 LA CORUÑA LISBOA JAMES RAWES-NAVEGAÇÃO, LDA CRUZEIROS
2020/11/10 07:00 ESC201801299 001302 8807088 HORIZON 9HYZ9 MALTA 208.0 47427.0 TERMINAL DE CRUZEIROS 7.0 7.0 UNKOWN LOCATION UNKOWN LOCATION UNIVERSAL MARITIMA, LDA CRUZEIROS
2020/12/12 05:00 ESC201900136 000137 8506373 ASTOR C6JR3 ILHAS BAAMAS 176.26 20704.0 DOCA 1 NORTE - PASSAGEIROS 6.1 6.1 HAMBURG PONTA DELGADA JAMES RAWES-NAVEGAÇÃO, LDA CRUZEIROS
2020/12/19 07:00 ESC201802063 002072 7108930 BLACK WATCH C6RS5 ILHAS BAAMAS 205.47 28613.0 TERMINAL DE CRUZEIROS 7.2 7.2 UNKOWN LOCATION UNKOWN LOCATION WILHELMSEN SHIPS SERVICE PORTUGAL, S.A. CRUZEIROS
2021/01/03 07:00 ESC201802065 002074 7108930 BLACK WATCH C6RS5 ILHAS BAAMAS 205.47 28613.0 TERMINAL DE CRUZEIROS 7.2 7.2 UNKOWN LOCATION UNKOWN LOCATION WILHELMSEN SHIPS SERVICE PORTUGAL, S.A. CRUZEIROS
2021/01/04 11:00 ESC201901010 001021 8217881 MAGELLAN C6BR5 ILHAS BAAMAS 221.57 46052.0 TERMINAL DE CRUZEIROS 7.8 7.8 LA CORUÑA LISBOA JAMES RAWES-NAVEGAÇÃO, LDA CRUZEIROS
2021/01/10 07:00 ESC201901079 001091 8611398 COLUMBUS C6CP4 ILHAS BAAMAS 245.6 63786.0 TERMINAL DE CRUZEIROS 8.0 8.0 LA CORUÑA CADIZ JAMES RAWES-NAVEGAÇÃO, LDA CRUZEIROS
2021/01/11 07:00 ESC201802066 002075 7108930 BLACK WATCH C6RS5 ILHAS BAAMAS 205.47 28613.0 TERMINAL DE CRUZEIROS 7.2 7.2 UNKOWN LOCATION UNKOWN LOCATION WILHELMSEN SHIPS SERVICE PORTUGAL, S.A. CRUZEIROS
2021/02/01 07:00 ESC201802067 002076 8506294 BALMORAL C6II4 ILHAS BAAMAS 217.91 43537.0 TERMINAL DE CRUZEIROS 7.2 7.2 UNKOWN LOCATION UNKOWN LOCATION WILHELMSEN SHIPS SERVICE PORTUGAL, S.A. CRUZEIROS
2021/02/01 08:00 ESC201802157 002166 9112789 AIDACARA IBNR ITALIA 193.34 38557.0 DOCA 1 NORTE - PASSAGEIROS 7.6 7.6 LISBOA LA CORUÑA JAMES RAWES-NAVEGAÇÃO, LDA CRUZEIROS
2021/02/27 07:00 ESC201802445 002450 9490040 AIDASOL ICPE ITALIA 253.33 71304.0 TERMINAL DE CRUZEIROS 7.9 7.9 LISBOA LA CORUÑA JAMES RAWES-NAVEGAÇÃO, LDA CRUZEIROS
2021/03/03 09:00 ESC201900631 000633 8918136 ZENITH 9HXM8 MALTA 208.0 47413.0 TERMINAL DE CRUZEIROS 8.0 8.0 LISBOA AGADIR UNIVERSAL MARITIMA, LDA CRUZEIROS
2021/03/17 09:00 ESC201900633 000635 8918136 ZENITH 9HXM8 MALTA 208.0 47413.0 TERMINAL DE CRUZEIROS 8.0 8.0 LISBOA AGADIR UNIVERSAL MARITIMA, LDA CRUZEIROS
2021/03/29 07:00 ESC201802068 002077 7218395 BOUDICCA C6VA3 ILHAS BAAMAS 206.96 28551.0 TERMINAL DE CRUZEIROS 7.2 7.2 UNKOWN LOCATION UNKOWN LOCATION WILHELMSEN SHIPS SERVICE PORTUGAL, S.A. CRUZEIROS
2021/03/31 09:00 ESC201900634 000636 8918136 ZENITH 9HXM8 MALTA 208.0 47413.0 TERMINAL DE CRUZEIROS 8.0 8.0 LISBOA AGADIR UNIVERSAL MARITIMA, LDA CRUZEIROS
2021/04/06 07:00 ESC201802816 002825 9641730 MEIN SCHIFF 3 9HA3062 MALTA 293.2 99526.0 TERMINAL DE CRUZEIROS 8.0 8.0 LISBOA LA CORUÑA UNIVERSAL MARITIMA, LDA CRUZEIROS
2021/04/11 08:00 ESC202000038 000040 9112789 AIDACARA IBNR ITALIA 193.34 38557.0 TERMINAL DE CRUZEIROS 7.6 7.6 LISBOA LA CORUÑA JAMES RAWES-NAVEGAÇÃO, LDA CRUZEIROS
2021/04/12 07:00 ESC201902702 002732 8907424 BREMEN C6JC3 ILHAS BAAMAS 111.51 6752.0 DOCA 1 NORTE - PASSAGEIROS 6.0 6.0 UNKOWN LOCATION UNKOWN LOCATION UNIVERSAL MARITIMA, LDA CRUZEIROS
2021/04/13 07:00 ESC201802823 002832 9650418 VIKING STAR LAIW6 NORUEGA 228.3 47842.0 TERMINAL DE CRUZEIROS 8.0 8.0 MÁLAGA FALMOUTH JAMES RAWES-NAVEGAÇÃO, LDA CRUZEIROS
2021/04/14 08:00 ESC201901523 001536 9333175 VENTURA ZCDT2 BERMUDAS 288.61 116017.0 TERMINAL DE CRUZEIROS 8.1 8.1 ST PETER PORT CADIZ JAMES RAWES-NAVEGAÇÃO, LDA CRUZEIROS
2021/04/17 07:00 ESC201901002 001012 9678408 MEIN SCHIFF 4 9HA3513 MALTA 293.6 99526.0 TERMINAL DE CRUZEIROS 8.0 8.0 LISBOA BILBAO UNIVERSAL MARITIMA, LDA CRUZEIROS
2021/04/18 08:00 ESC201902116 002137 9835719 WORLD EXPLORER NA PORTUGAL 126.0 9271.0 DOCA 1 NORTE - PASSAGEIROS 4.0 4.0 LISBOA LA CORUÑA NAVEX - EMP. PORT. DE NAVEGACAO CRUZEIROS
2021/04/18 12:30 ESC201900710 000713 9502518 L'AUSTRAL FLTU FRANCA 142.1 10944.0 DOCA 1 NORTE - PASSAGEIROS 7.0 7.0 LISBOA PASAJES JAMES RAWES-NAVEGAÇÃO, LDA CRUZEIROS
2021/04/19 07:00 ESC201802070 002079 8506294 BALMORAL C6II4 ILHAS BAAMAS 217.91 43537.0 TERMINAL DE CRUZEIROS 7.2 7.2 UNKOWN LOCATION UNKOWN LOCATION WILHELMSEN SHIPS SERVICE PORTUGAL, S.A. CRUZEIROS
2021/04/19 07:00 ESC201902625 002654 8802870 CALEDONIAN SKY C6ZO2 ILHAS BAAMAS 90.6 4200.0 DOCA 1 NORTE - PASSAGEIROS 7.0 7.0 LISBOA VILLAGARCÍA (DE AROUSA) JAMES RAWES-NAVEGAÇÃO, LDA CRUZEIROS
2021/04/21 06:00 ESC201802173 002182 8700280 AMERA C6EA7 ILHAS BAAMAS 204.0 38848.0 TERMINAL DE CRUZEIROS PONTA DELGADA FERROL GARLAND NAVEGACAO CRUZEIROS
2021/04/21 07:00 ESC202000364 000363 9800000 SPIRIT OF ADVENTURE SPDAD MALTA 236.0 57600.0 TERMINAL DE CRUZEIROS 7.6 7.6 LA CORUÑA LISBOA JAMES RAWES-NAVEGAÇÃO, LDA CRUZEIROS
2021/04/22 09:00 ESC201800700 000696 9636967 AIDAPERLA IBRL ITALIA 299.95 125572.0 TERMINAL DE CRUZEIROS 8.1 8.1 FUNCHAL, MADEIRA LA CORUÑA JAMES RAWES-NAVEGAÇÃO, LDA CRUZEIROS
2021/04/24 06:00 ESC201902020 002040 9451094 CELEBRITY SILHOUETTE 9HA2583 MALTA 315.0 122210.0 TERMINAL DE CRUZEIROS 8.0 8.0 UNKOWN LOCATION UNKOWN LOCATION UNIVERSAL MARITIMA, LDA CRUZEIROS
2021/04/24 07:00 ESC201802825 9833175 VIKING SEVEN VKSVN NORUEGA 228.2 47800.0 TERMINAL DE CRUZEIROS 8.0 8.0 MÁLAGA FALMOUTH JAMES RAWES-NAVEGAÇÃO, LDA NAVIO EM CONSTRUÇÃO
2021/04/25 07:00 ESC201901939 001956 9490052 AIDAMAR ICSJ ITALIA 253.22 71304.0 DOCA 1 NORTE - PASSAGEIROS 8.1 8.1 LISBOA LA CORUÑA JAMES RAWES-NAVEGAÇÃO, LDA CRUZEIROS
2021/04/25 08:00 ESC201901563 002228 9814052 LE DUMONT-D'URVILLE FLDS FRANCA 131.46 9988.0 DOCA 1 NORTE - PASSAGEIROS 7.0 7.0 LISBOA CEE JAMES RAWES-NAVEGAÇÃO, LDA CRUZEIROS
2021/04/25 08:00 ESC202000116 000116 9221554 AIDAVITA IBNP ITALIA 202.85 42289.0 DOCA 1 NORTE - PASSAGEIROS 7.6 7.6 LISBOA LA CORUÑA JAMES RAWES-NAVEGAÇÃO, LDA CRUZEIROS
2021/04/27 07:00 ESC201900956 000966 7304314 ALBATROS C6CN4 ILHAS BAAMAS 205.46 28518.0 DOCA 1 NORTE - PASSAGEIROS TANGIER LA CORUÑA GARLAND NAVEGACAO CRUZEIROS
2021/04/28 09:00 ESC201901363 001374 9169524 AURORA ZCDW9 BERMUDAS 270.0 76152.0 TERMINAL DE CRUZEIROS 8.1 8.1 LISBOA ST PETER PORT JAMES RAWES-NAVEGAÇÃO, LDA CRUZEIROS
2021/04/30 07:00 ESC201901950 001968 9636955 AIDAPRIMA IBGU ITALIA 299.95 125572.0 TERMINAL DE CRUZEIROS 8.1 8.1 LISBOA LA CORUÑA JAMES RAWES-NAVEGAÇÃO, LDA CRUZEIROS
2021/04/30 07:00 ESC201802824 9796262 VIKING JUPITER LAYP7 NORUEGA 228.26 47861.0 TERMINAL DE CRUZEIROS 8.0 8.0 MÁLAGA FALMOUTH JAMES RAWES-NAVEGAÇÃO, LDA CRUZEIROS
2021/04/30 13:00 ESC201901380 001391 9138329 HAMBURG C6OX6 ILHAS BAAMAS 145.0 15067.0 DOCA 1 NORTE - PASSAGEIROS LISBOA VILLAGARCÍA (DE AROUSA) OREY COMERCIO E NAVEGACAO CRUZEIROS
2021/05/01 07:00 ESC202000281 000280 6602898 OCEAN MAJESTY CQSC PORTUGAL 135.3 10417.0 DOCA 1 NORTE - PASSAGEIROS 5.5 5.5 SEVILLA VIGO WILHELMSEN SHIPS SERVICE PORTUGAL, S.A. CRUZEIROS
2021/05/03 08:00 ESC201900652 000654 9807085 SEVEN SEAS SPLENDOR 00000 ILHAS MARSHALL 223.0 54000.0 TERMINAL DE CRUZEIROS 7.0 7.0 LISBOA FERROL UNIVERSAL MARITIMA, LDA CRUZEIROS
2021/05/04 11:30 ESC201901199 001212 9814038 LE CHAMPLAIN FLBP FRANCA 131.46 9976.0 DOCA 1 NORTE - PASSAGEIROS 7.0 7.0 LISBOA LA CORUÑA JAMES RAWES-NAVEGAÇÃO, LDA CRUZEIROS
2021/05/05 07:00 ESC201901434 001445 9783564 MEIN SCHIFF 1 9HA4683 MALTA 315.7 111554.0 TERMINAL DE CRUZEIROS 6.0 6.0 LISBOA LA CORUÑA UNIVERSAL MARITIMA, LDA CRUZEIROS
2021/05/05 08:00 ESC201901294 001305 9187899 SIRENA V7RX6 ILHAS MARSHALL 181.0 30277.0 DOCA 1 NORTE - PASSAGEIROS 7.0 7.0 LISBOA SAN SEBASTIAN DE LA GOMERA UNIVERSAL MARITIMA, LDA CRUZEIROS
2021/05/05 11:30 ESC201902196 002219 9502506 LE BOREAL FLSY FRANCA 140.0 10944.0 DOCA 1 NORTE - PASSAGEIROS 7.0 7.0 LISBOA LA CORUÑA JAMES RAWES-NAVEGAÇÃO, LDA CRUZEIROS
2021/05/06 09:30 ESC201901795 001811 8903935 SILVER WIND C6FG2 ILHAS BAAMAS 155.81 17235.0 DOCA 1 NORTE - PASSAGEIROS 6.0 6.0 LISBOA MÁLAGA UNIVERSAL MARITIMA, LDA CRUZEIROS
2021/05/08 00:00 ESC201901155 001168 9387073 MSC POESIA 3EPL4 PANAMA 293.8 92627.0 TERMINAL DE CRUZEIROS LISBOA FERROL MEDITERRANEAN SHIPPING CO. CRUZEIROS
2021/05/09 05:00 ESC201902313 002339 8506373 ASTOR C6JR3 ILHAS BAAMAS 176.26 20704.0 DOCA 1 NORTE - PASSAGEIROS 7.6 7.9 LA CORUÑA LISBOA JAMES RAWES-NAVEGAÇÃO, LDA CRUZEIROS
2021/05/12 10:00 ESC201901241 001253 8203438 SEADREAM I C6PW8 ILHAS BAAMAS 104.83 4333.0 DOCA 1 NORTE - PASSAGEIROS 4.4 4.4 LISBOA VIGO PORTMAR CRUZEIROS
2021/05/19 07:00 ESC201802072 002081 7218395 BOUDICCA C6VA3 ILHAS BAAMAS 206.96 28551.0 TERMINAL DE CRUZEIROS 7.2 7.2 UNKOWN LOCATION UNKOWN LOCATION WILHELMSEN SHIPS SERVICE PORTUGAL, S.A. CRUZEIROS
2021/05/19 07:00 ESC201802071 002080 7108930 BLACK WATCH C6RS5 ILHAS BAAMAS 205.47 28613.0 TERMINAL DE CRUZEIROS 7.2 7.2 UNKOWN LOCATION UNKOWN LOCATION WILHELMSEN SHIPS SERVICE PORTUGAL, S.A. CRUZEIROS
2021/05/19 09:00 ESC201902627 002656 9479864 COSTA FASCINOSA ICPO ITALIA 289.58 113321.0 TERMINAL DE CRUZEIROS 8.1 8.1 LISBOA LE HAVRE JAMES RAWES-NAVEGAÇÃO, LDA CRUZEIROS
2021/05/20 07:00 ESC201901008 001018 9753208 MEIN SCHIFF 6 9HA4330 MALTA 295.25 98811.0 TERMINAL DE CRUZEIROS 8.0 8.0 LISBOA LA CORUÑA UNIVERSAL MARITIMA, LDA CRUZEIROS
2021/05/22 08:00 ESC202000113 000113 8521232 PACIFIC DAWN 2AGH7 REINO UNIDO 245.1 70285.0 TERMINAL DE CRUZEIROS 8.0 8.0 LISBOA LA CORUÑA JAMES RAWES-NAVEGAÇÃO, LDA CRUZEIROS
2021/05/24 07:00 ESC201900515 000517 9141807 DEUTSCHLAND C6BZ6 ILHAS BAAMAS 175.49 22496.0 TERMINAL DE CRUZEIROS LISBOA LA CORUÑA GARLAND NAVEGACAO CRUZEIROS
2021/05/26 08:00 ESC201901364 001375 9169550 OCEANA ZCDN9 BERMUDAS 261.22 77499.0 TERMINAL DE CRUZEIROS 8.1 8.1 LISBOA ST PETER PORT JAMES RAWES-NAVEGAÇÃO, LDA CRUZEIROS
2021/05/28 08:00 ESC201900838 000842 9438066 MARINA V7SK2 ILHAS MARSHALL 239.3 66084.0 TERMINAL DE CRUZEIROS 7.4 7.4 LISBOA LA CORUÑA UNIVERSAL MARITIMA, LDA CRUZEIROS
2021/05/28 08:00 ESC202000041 9837470 RYNDAM RYND PAISES BAIXOS 299.5 99500.0 TERMINAL DE CRUZEIROS 8.1 8.1 LISBOA LA CORUÑA JAMES RAWES-NAVEGAÇÃO, LDA NAVIO EM CONSTRUÇÃO
2021/05/28 09:30 ESC201901258 001268 9797371 SCENIC ECLIPSE ? MALTA 165.7 22498.0 DOCA 1 NORTE - PASSAGEIROS 6.0 6.0 LISBOA DOUARNENEZ UNIVERSAL MARITIMA, LDA CRUZEIROS
2021/05/29 08:00 ESC201900677 000680 9102992 VEENDAM C6NL6 ILHAS BAAMAS 219.21 55451.0 TERMINAL DE CRUZEIROS 7.5 7.5 LISBOA BORDEAUX JAMES RAWES-NAVEGAÇÃO, LDA CRUZEIROS
2021/05/29 08:00 ESC201902117 002138 9871529 WORLD VOYAGER n/d PORTUGAL 126.0 9315.0 DOCA 1 NORTE - PASSAGEIROS 4.0 4.0 LISBOA LA CORUÑA NAVEX - EMP. PORT. DE NAVEGACAO CRUZEIROS
2021/05/30 07:00 ESC201901937 001954 9224726 CARNIVAL LEGEND 9HA3667 MALTA 292.5 85942.0 TERMINAL DE CRUZEIROS 8.1 8.1 LISBOA LA CORUÑA JAMES RAWES-NAVEGAÇÃO, LDA CRUZEIROS
2021/06/01 07:00 ESC201901649 001662 9437866 SILVER SPIRIT C6XU6 ILHAS BAAMAS 210.7 39444.0 TERMINAL DE CRUZEIROS 6.0 6.0 LISBOA BILBAO UNIVERSAL MARITIMA, LDA CRUZEIROS
2021/06/04 07:00 ESC201901081 001093 9417098 SEABOURN SOJOURN C6YA5 ILHAS BAAMAS 198.19 32346.0 DOCA 1 NORTE - PASSAGEIROS 7.2 7.2 CASABLANCA LISBOA JAMES RAWES-NAVEGAÇÃO, LDA CRUZEIROS
2021/06/04 08:00 ESC201901365 001376 9169550 OCEANA ZCDN9 BERMUDAS 261.22 77499.0 TERMINAL DE CRUZEIROS 8.1 8.1 LISBOA ST PETER PORT JAMES RAWES-NAVEGAÇÃO, LDA CRUZEIROS
2021/06/06 12:00 ESC202000610 000608 7904889 BERLIN 9HA2295 MALTA 139.3 9570.0 DOCA 1 NORTE - PASSAGEIROS 7.0 7.0 LISBOA LA CORUÑA JAMES RAWES-NAVEGAÇÃO, LDA CRUZEIROS
2021/06/07 08:00 ESC201901161 001174 8919269 RIJNDAM PHFV PAISES BAIXOS 219.3 55819.0 TERMINAL DE CRUZEIROS 7.8 7.8 LA CORUÑA CADIZ JAMES RAWES-NAVEGAÇÃO, LDA CRUZEIROS
2021/06/08 09:00 ESC201901362 001373 9320556 QUEEN VICTORIA ZCEF3 BERMUDAS 294.0 90049.0 TERMINAL DE CRUZEIROS 8.1 8.1 SOUTHAMPTON BARCELONA JAMES RAWES-NAVEGAÇÃO, LDA CRUZEIROS
2021/06/10 07:00 ESC201801514 001521 9156462 INSIGNIA V7DM2 ILHAS MARSHALL 181.0 30277.0 TERMINAL DE CRUZEIROS 8.0 7.85 LISBOA LA CORUÑA UNIVERSAL MARITIMA, LDA CRUZEIROS
2021/06/11 07:00 ESC201901941 001958 9169550 OCEANA ZCDN9 BERMUDAS 261.22 77499.0 TERMINAL DE CRUZEIROS 8.1 8.1 LA CORUÑA LISBOA JAMES RAWES-NAVEGAÇÃO, LDA CRUZEIROS
2021/06/14 07:00 ESC201900237 000239 9210218 AZAMARA QUEST 9HOM8 MALTA 181.0 30277.0 TERMINAL DE CRUZEIROS 7.0 7.0 LISBOA BILBAO UNIVERSAL MARITIMA, LDA CRUZEIROS
2021/06/17 08:00 ESC201900017 000017 8903923 SILVER CLOUD C6MQ5 ILHAS BAAMAS 155.81 17014.0 DOCA 1 NORTE - PASSAGEIROS 7.0 7.0 LISBOA PORTIMAO UNIVERSAL MARITIMA, LDA CRUZEIROS
2021/06/25 08:00 ESC201900656 000658 9247144 SEVEN SEAS VOYAGER C6SW3 ILHAS BAAMAS 206.5 42363.0 TERMINAL DE CRUZEIROS 7.0 7.0 LISBOA LA CORUÑA UNIVERSAL MARITIMA, LDA CRUZEIROS
2021/06/29 09:00 ESC201901242 001254 8203438 SEADREAM I C6PW8 ILHAS BAAMAS 104.83 4333.0 DOCA 1 NORTE - PASSAGEIROS 4.4 4.4 LISBOA VIGO PORTMAR CRUZEIROS
2021/07/01 08:00 ESC201902751 002783 9871531 WORLD NAVIGATOR n/d PORTUGAL 126.0 9315.0 TERMINAL DE CRUZEIROS 4.0 4.0 VIANA DO CASTELO LISBOA NAVEX - EMP. PORT. DE NAVEGACAO CRUZEIROS
2021/07/06 06:00 ESC201900307 8456 VENTURE ONE VNTO MALTA 170.0 22800.0 DOCA 1 NORTE - PASSAGEIROS 5.6 5.6 LISBOA LA CORUÑA JAMES RAWES-NAVEGAÇÃO, LDA NAVIO EM CONSTRUÇÃO
2021/07/06 08:00 ESC201901219 9862023 SEABOURN VENTURE SBVEN ILHAS BAAMAS 170.0 23000.0 DOCA 1 NORTE - PASSAGEIROS 8.0 8.0 LA CORUÑA LISBOA JAMES RAWES-NAVEGAÇÃO, LDA NAVIO EM CONSTRUÇÃO
2021/07/14 08:00 ESC201901367 001378 9169550 OCEANA ZCDN9 BERMUDAS 261.22 77499.0 TERMINAL DE CRUZEIROS 8.1 8.1 LISBOA ST PETER PORT JAMES RAWES-NAVEGAÇÃO, LDA CRUZEIROS
2021/07/15 07:00 ESC201902628 002657 8802870 CALEDONIAN SKY C6ZO2 ILHAS BAAMAS 90.6 4200.0 DOCA 1 NORTE - PASSAGEIROS 7.0 7.0 BILBAO LISBOA JAMES RAWES-NAVEGAÇÃO, LDA CRUZEIROS
2021/07/15 08:00 ESC201901243 001255 8203438 SEADREAM I C6PW8 ILHAS BAAMAS 104.83 4333.0 DOCA 1 NORTE - PASSAGEIROS 4.4 4.4 LISBOA VIGO PORTMAR CRUZEIROS
2021/08/04 08:00 ESC201901368 001379 9169550 OCEANA ZCDN9 BERMUDAS 261.22 77499.0 TERMINAL DE CRUZEIROS 8.1 8.1 LISBOA ST PETER PORT JAMES RAWES-NAVEGAÇÃO, LDA CRUZEIROS
2021/08/08 08:00 ESC201901044 001055 9753208 MEIN SCHIFF 6 9HA4330 MALTA 295.25 98811.0 TERMINAL DE CRUZEIROS 8.0 8.0 LA CORUÑA LISBOA UNIVERSAL MARITIMA, LDA CRUZEIROS
2021/08/09 09:00 ESC201901011 001022 8217881 MAGELLAN C6BR5 ILHAS BAAMAS 221.57 46052.0 TERMINAL DE CRUZEIROS 7.8 7.8 LA CORUÑA LISBOA JAMES RAWES-NAVEGAÇÃO, LDA CRUZEIROS
2021/08/13 07:00 ESC201900655 000657 9064126 SEVEN SEAS NAVIGATOR C6ZI9 ILHAS BAAMAS 170.69 28803.0 TERMINAL DE CRUZEIROS 7.0 7.0 FERROL LISBOA UNIVERSAL MARITIMA, LDA CRUZEIROS
2021/08/18 07:00 ESC202000611 000609 7904889 BERLIN 9HA2295 MALTA 139.3 9570.0 DOCA 1 NORTE - PASSAGEIROS 7.0 7.0 LA CORUÑA LISBOA JAMES RAWES-NAVEGAÇÃO, LDA CRUZEIROS
2021/08/24 08:00 ESC201901936 001953 9169550 OCEANA ZCDN9 BERMUDAS 261.22 77499.0 TERMINAL DE CRUZEIROS 8.1 8.1 ST PETER PORT LISBOA JAMES RAWES-NAVEGAÇÃO, LDA CRUZEIROS
2021/08/25 07:00 ESC201900658 000660 9247144 SEVEN SEAS VOYAGER C6SW3 ILHAS BAAMAS 206.5 42363.0 TERMINAL DE CRUZEIROS 7.0 7.0 LA CORUÑA LISBOA UNIVERSAL MARITIMA, LDA CRUZEIROS
2021/08/28 07:00 ESC201902085 002105 9189421 CELEBRITY INFINITY 9HJD9 MALTA 294.0 90940.0 TERMINAL DE CRUZEIROS 8.0 8.0 LA CORUÑA LISBOA UNIVERSAL MARITIMA, LDA CRUZEIROS
2021/08/31 07:00 ESC201901938 001955 9224726 CARNIVAL LEGEND 9HA3667 MALTA 292.5 85942.0 TERMINAL DE CRUZEIROS 8.1 8.1 LA CORUÑA LISBOA JAMES RAWES-NAVEGAÇÃO, LDA CRUZEIROS
2021/09/01 07:00 ESC201902086 002107 9189421 CELEBRITY INFINITY 9HJD9 MALTA 294.0 90940.0 TERMINAL DE CRUZEIROS 8.0 8.0 LISBOA LA CORUÑA UNIVERSAL MARITIMA, LDA CRUZEIROS
2021/09/03 07:00 ESC201901942 001959 9169550 OCEANA ZCDN9 BERMUDAS 261.22 77499.0 TERMINAL DE CRUZEIROS 8.1 8.1 LISBOA LA CORUÑA JAMES RAWES-NAVEGAÇÃO, LDA CRUZEIROS
2021/09/07 08:00 ESC201900238 000240 9200940 AZAMARA JOURNEY 9HOB8 MALTA 181.0 30277.0 TERMINAL DE CRUZEIROS 7.0 7.0 LA CORUÑA LISBOA UNIVERSAL MARITIMA, LDA CRUZEIROS
2021/09/11 07:00 ESC201900836 000840 9156462 INSIGNIA V7DM2 ILHAS MARSHALL 181.0 30277.0 TERMINAL DE CRUZEIROS 6.0 6.0 ST MALO SAINT GEORGE UNIVERSAL MARITIMA, LDA CRUZEIROS
2021/09/12 08:00 ESC201900676 000679 9102992 VEENDAM C6NL6 ILHAS BAAMAS 219.21 55451.0 TERMINAL DE CRUZEIROS 7.5 7.5 BORDEAUX LISBOA JAMES RAWES-NAVEGAÇÃO, LDA CRUZEIROS
2021/09/13 08:00 ESC201902903 002932 8506294 BALMORAL C6II4 ILHAS BAAMAS 217.91 43537.0 TERMINAL DE CRUZEIROS 7.5 7.5 UNKOWN LOCATION UNKOWN LOCATION WILHELMSEN SHIPS SERVICE PORTUGAL, S.A. CRUZEIROS
2021/09/15 09:00 ESC201902588 002616 9479864 COSTA FASCINOSA ICPO ITALIA 289.58 113321.0 TERMINAL DE CRUZEIROS 8.1 8.1 LA CORUÑA LISBOA JAMES RAWES-NAVEGAÇÃO, LDA CRUZEIROS
2021/09/16 09:00 ESC201902047 002100 9814052 LE DUMONT-D'URVILLE FLDS FRANCA 131.46 9988.0 DOCA 1 NORTE - PASSAGEIROS 7.0 7.0 LISBOA CEE JAMES RAWES-NAVEGAÇÃO, LDA CRUZEIROS
2021/09/17 07:00 ESC201802519 002524 9189421 CELEBRITY INFINITY 9HJD9 MALTA 294.0 90940.0 TERMINAL DE CRUZEIROS 8.9 8.0 LISBOA LA CORUÑA UNIVERSAL MARITIMA, LDA CRUZEIROS
2021/09/18 07:00 ESC201902093 002113 9228356 JEWEL OF THE SEAS C6FW9 ILHAS BAAMAS 293.0 90090.0 TERMINAL DE CRUZEIROS 8.0 8.0 LISBOA GIBRALTAR UNIVERSAL MARITIMA, LDA CRUZEIROS
2021/09/21 07:00 ESC201902088 002108 9189421 CELEBRITY INFINITY 9HJD9 MALTA 294.0 90940.0 TERMINAL DE CRUZEIROS 8.0 8.0 LISBOA LA CORUÑA UNIVERSAL MARITIMA, LDA CRUZEIROS
2021/09/23 08:00 ESC201902119 002140 9835719 WORLD EXPLORER NA PORTUGAL 126.0 9271.0 DOCA 1 NORTE - PASSAGEIROS 4.0 4.0 LA CORUÑA LISBOA NAVEX - EMP. PORT. DE NAVEGACAO CRUZEIROS
2021/09/24 08:00 ESC201901370 001381 9169550 OCEANA ZCDN9 BERMUDAS 261.22 77499.0 TERMINAL DE CRUZEIROS 8.1 8.1 LISBOA ST PETER PORT JAMES RAWES-NAVEGAÇÃO, LDA CRUZEIROS
2021/09/29 08:00 ESC201902120 002141 9871529 WORLD VOYAGER n/d PORTUGAL 126.0 9315.0 DOCA 1 NORTE - PASSAGEIROS 4.0 4.0 LA CORUÑA LISBOA NAVEX - EMP. PORT. DE NAVEGACAO CRUZEIROS
2021/09/29 08:00 ESC201901012 001023 8217881 MAGELLAN C6BR5 ILHAS BAAMAS 221.57 46052.0 TERMINAL DE CRUZEIROS 7.8 7.8 LISBOA LA CORUÑA JAMES RAWES-NAVEGAÇÃO, LDA CRUZEIROS
2021/09/29 09:00 ESC201902413 002437 8907424 BREMEN C6JC3 ILHAS BAAMAS 111.51 6752.0 TERMINAL DE CRUZEIROS 4.5 4.5 LA CORUÑA LISBOA UNIVERSAL MARITIMA, LDA CRUZEIROS
2021/09/30 07:00 ESC201900654 000656 9807085 SEVEN SEAS SPLENDOR 00000 ILHAS MARSHALL 223.0 54000.0 TERMINAL DE CRUZEIROS 7.0 7.0 LA CORUÑA LISBOA UNIVERSAL MARITIMA, LDA CRUZEIROS
2021/09/30 08:00 ESC201902102 002123 9814052 LE DUMONT-D'URVILLE FLDS FRANCA 131.46 9988.0 DOCA 1 NORTE - PASSAGEIROS 7.0 7.0 LA CORUÑA LISBOA JAMES RAWES-NAVEGAÇÃO, LDA CRUZEIROS
2021/10/01 08:00 ESC201901278 001288 7915096 OCEAN DREAM 3EWW6 PANAMA 204.76 35265.0 DOCA 1 NORTE - PASSAGEIROS VALENCIA LIVERPOOL GARLAND NAVEGACAO CRUZEIROS
2021/10/02 08:00 ESC201902205 002227 9814052 LE DUMONT-D'URVILLE FLDS FRANCA 131.46 9988.0 DOCA 1 NORTE - PASSAGEIROS 7.0 7.0 LISBOA CEE JAMES RAWES-NAVEGAÇÃO, LDA CRUZEIROS
2021/10/02 10:00 ESC201902276 002302 9387073 MSC POESIA 3EPL4 PANAMA 293.8 92627.0 TERMINAL DE CRUZEIROS FERROL LISBOA MEDITERRANEAN SHIPPING CO. CRUZEIROS
2021/10/03 06:00 ESC201900839 000843 9438066 MARINA V7SK2 ILHAS MARSHALL 239.3 66084.0 DOCA 1 NORTE - PASSAGEIROS 7.4 7.4 VILLAGARCÍA (DE AROUSA) LISBOA UNIVERSAL MARITIMA, LDA CRUZEIROS
2021/10/03 08:00 ESC201902436 002460 9417098 SEABOURN SOJOURN C6YA5 ILHAS BAAMAS 198.19 32346.0 DOCA 1 NORTE - PASSAGEIROS 7.0 7.0 ROUEN LISBOA JAMES RAWES-NAVEGAÇÃO, LDA CRUZEIROS
2021/10/06 08:00 ESC201902504 002528 9451094 CELEBRITY SILHOUETTE 9HA2583 MALTA 315.0 122210.0 TERMINAL DE CRUZEIROS 8.0 8.0 SOUTHAMPTON LANZAROTE UNIVERSAL MARITIMA, LDA CRUZEIROS
2021/10/07 07:00 ESC201802521 002526 9189421 CELEBRITY INFINITY 9HJD9 MALTA 294.0 90940.0 TERMINAL DE CRUZEIROS 8.0 8.0 LISBOA LA CORUÑA UNIVERSAL MARITIMA, LDA CRUZEIROS
2021/10/07 08:00 ESC201901650 001663 9437866 SILVER SPIRIT C6XU6 ILHAS BAAMAS 210.7 39444.0 DOCA 1 NORTE - PASSAGEIROS 6.0 6.0 LA CORUÑA LISBOA UNIVERSAL MARITIMA, LDA CRUZEIROS
2021/10/08 17:00 ESC201902481 002504 9228356 JEWEL OF THE SEAS C6FW9 ILHAS BAAMAS 293.0 90090.0 TERMINAL DE CRUZEIROS 8.0 8.0 SEVILLA LISBOA UNIVERSAL MARITIMA, LDA CRUZEIROS
2021/10/11 07:00 ESC201901797 001813 8903935 SILVER WIND C6FG2 ILHAS BAAMAS 155.81 17235.0 DOCA 1 NORTE - PASSAGEIROS 6.0 6.0 LISBOA MÁLAGA UNIVERSAL MARITIMA, LDA CRUZEIROS
2021/10/11 08:00 ESC201902311 002337 9189421 CELEBRITY INFINITY 9HJD9 MALTA 294.0 90940.0 TERMINAL DE CRUZEIROS 8.0 8.0 LISBOA LA CORUÑA UNIVERSAL MARITIMA, LDA CRUZEIROS
2021/10/12 07:00 ESC201901003 001013 9678408 MEIN SCHIFF 4 9HA3513 MALTA 293.6 99526.0 TERMINAL DE CRUZEIROS 8.0 8.0 LA CORUÑA LISBOA UNIVERSAL MARITIMA, LDA CRUZEIROS
2021/10/12 08:00 ESC201901013 001024 8217881 MAGELLAN C6BR5 ILHAS BAAMAS 221.57 46052.0 TERMINAL DE CRUZEIROS 7.8 7.8 LISBOA LA CORUÑA JAMES RAWES-NAVEGAÇÃO, LDA CRUZEIROS
2021/10/13 07:00 ESC201901340 001351 9451094 CELEBRITY SILHOUETTE 9HA2583 MALTA 315.0 122210.0 TERMINAL DE CRUZEIROS 8.0 8.0 VIGO LISBOA UNIVERSAL MARITIMA, LDA CRUZEIROS
2021/10/13 08:00 ESC201902282 9833175 VIKING SEVEN VKSVN NORUEGA 228.2 47800.0 DOCA 1 NORTE - PASSAGEIROS 8.0 8.0 FALMOUTH MÁLAGA JAMES RAWES-NAVEGAÇÃO, LDA NAVIO EM CONSTRUÇÃO
2021/10/14 09:00 ESC201902790 002821 9102978 GRANDEUR OF THE SEAS ELTQ9 LIBERIA 279.1 73817.0 TERMINAL DE CRUZEIROS 6.0 6.0 LISBOA MÁLAGA UNIVERSAL MARITIMA, LDA CRUZEIROS
2021/10/16 08:00 ESC201902104 002125 9814052 LE DUMONT-D'URVILLE FLDS FRANCA 131.46 9988.0 DOCA 1 NORTE - PASSAGEIROS 7.0 7.0 LA CORUÑA LISBOA JAMES RAWES-NAVEGAÇÃO, LDA CRUZEIROS
2021/10/17 07:00 ESC202000365 000364 9800000 SPIRIT OF ADVENTURE SPDAD MALTA 236.0 57600.0 TERMINAL DE CRUZEIROS 7.6 7.6 LA CORUÑA LISBOA JAMES RAWES-NAVEGAÇÃO, LDA CRUZEIROS
2021/10/18 07:00 ESC201900835 000839 9187899 SIRENA V7RX6 ILHAS MARSHALL 181.0 30277.0 TERMINAL DE CRUZEIROS 6.0 6.0 LA CORUÑA HORTA UNIVERSAL MARITIMA, LDA CRUZEIROS
2021/10/19 11:00 ESC201901160 001173 8611398 COLUMBUS C6CP4 ILHAS BAAMAS 245.6 63786.0 TERMINAL DE CRUZEIROS 8.0 8.0 GIBRALTAR LA CORUÑA JAMES RAWES-NAVEGAÇÃO, LDA CRUZEIROS
2021/10/20 08:00 ESC201902505 002529 9451094 CELEBRITY SILHOUETTE 9HA2583 MALTA 315.0 122210.0 TERMINAL DE CRUZEIROS 8.0 8.0 SOUTHAMPTON LANZAROTE UNIVERSAL MARITIMA, LDA CRUZEIROS
2021/10/22 07:00 ESC201902827 002856 9304057 NORWEGIAN JADE C6WK7 ILHAS BAAMAS 294.13 93558.0 TERMINAL DE CRUZEIROS 7.0 7.0 LA CORUÑA LISBOA UNIVERSAL MARITIMA, LDA CRUZEIROS
2021/10/22 08:00 ESC202000745 000745 8919269 RIJNDAM PHFV PAISES BAIXOS 219.3 55819.0 DOCA 1 NORTE - PASSAGEIROS 8.0 8.0 CASABLANCA LE HAVRE JAMES RAWES-NAVEGAÇÃO, LDA CRUZEIROS
2021/10/23 09:00 ESC202000788 000789 8506294 BALMORAL C6II4 ILHAS BAAMAS 217.91 43537.0 TERMINAL DE CRUZEIROS 5.7 LISBOA UNKOWN LOCATION WILHELMSEN SHIPS SERVICE PORTUGAL, S.A. CRUZEIROS
2021/10/28 09:00 ESC201902791 002822 9102978 GRANDEUR OF THE SEAS ELTQ9 LIBERIA 279.1 73817.0 TERMINAL DE CRUZEIROS 6.0 6.0 LISBOA MÁLAGA UNIVERSAL MARITIMA, LDA CRUZEIROS
2021/10/31 12:00 ESC201901182 001195 9230402 ISLAND PRINCESS ZCDG4 BERMUDAS 294.0 92822.0 TERMINAL DE CRUZEIROS 8.1 8.1 LA CORUÑA CADIZ JAMES RAWES-NAVEGAÇÃO, LDA CRUZEIROS
2021/11/01 08:00 ESC201902670 002699 9490052 AIDAMAR ICSJ ITALIA 253.22 71304.0 TERMINAL DE CRUZEIROS 8.1 8.1 LA CORUÑA LISBOA JAMES RAWES-NAVEGAÇÃO, LDA CRUZEIROS
2021/11/04 07:00 ESC201902666 002695 9221554 AIDAVITA IBNP ITALIA 202.85 42289.0 TERMINAL DE CRUZEIROS 8.0 8.0 PORTLAND FUNCHAL, MADEIRA JAMES RAWES-NAVEGAÇÃO, LDA CRUZEIROS
2021/11/06 08:00 ESC201902434 002458 9490040 AIDASOL ICPE ITALIA 253.33 71304.0 TERMINAL DE CRUZEIROS 7.9 7.9 LA CORUÑA LISBOA JAMES RAWES-NAVEGAÇÃO, LDA CRUZEIROS
2021/11/07 11:00 ESC201901652 001665 8201480 ARTANIA C6CY5 ILHAS BAAMAS 230.61 44656.0 TERMINAL DE CRUZEIROS FUNCHAL, MADEIRA LA CORUÑA GARLAND NAVEGACAO CRUZEIROS
2021/11/11 09:00 ESC201902793 002824 9102978 GRANDEUR OF THE SEAS ELTQ9 LIBERIA 279.1 73817.0 TERMINAL DE CRUZEIROS 6.0 6.0 LISBOA MÁLAGA UNIVERSAL MARITIMA, LDA CRUZEIROS
2021/11/16 07:00 ESC201900958 000968 8201480 ARTANIA C6CY5 ILHAS BAAMAS 230.61 44656.0 TERMINAL DE CRUZEIROS FERROL LISBOA GARLAND NAVEGACAO CRUZEIROS
2021/11/25 06:00 ESC201901080 001092 8611398 COLUMBUS C6CP4 ILHAS BAAMAS 245.6 63786.0 DOCA 1 NORTE - PASSAGEIROS 8.0 8.0 LA CORUÑA CADIZ JAMES RAWES-NAVEGAÇÃO, LDA CRUZEIROS
2021/12/04 08:00 ESC201902438 002462 9636955 AIDAPRIMA IBGU ITALIA 299.95 125572.0 TERMINAL DE CRUZEIROS 8.2 8.2 LA CORUÑA LISBOA JAMES RAWES-NAVEGAÇÃO, LDA CRUZEIROS
2021/12/05 07:00 ESC201900959 000969 8201480 ARTANIA C6CY5 ILHAS BAAMAS 230.61 44656.0 TERMINAL DE CRUZEIROS FERROL LISBOA GARLAND NAVEGACAO CRUZEIROS
2021/12/21 08:00 ESC202000366 000365 9802683 SPIRIT OF DISCOVERY MEYE7 REINO UNIDO 236.0 58119.0 TERMINAL DE CRUZEIROS 7.6 7.6 LA CORUÑA LISBOA JAMES RAWES-NAVEGAÇÃO, LDA CRUZEIROS
2022/01/02 08:00 ESC202000020 000020 9221554 AIDAVITA IBNP ITALIA 202.85 42289.0 TERMINAL DE CRUZEIROS 8.0 8.0 LISBOA ROTTERDAM JAMES RAWES-NAVEGAÇÃO, LDA CRUZEIROS
2022/02/14 08:00 ESC202000021 000021 9221554 AIDAVITA IBNP ITALIA 202.85 42289.0 TERMINAL DE CRUZEIROS 8.1 8.1 LISBOA ROTTERDAM JAMES RAWES-NAVEGAÇÃO, LDA CRUZEIROS
2022/02/24 07:00 ESC201902667 002696 9221554 AIDAVITA IBNP ITALIA 202.85 42289.0 TERMINAL DE CRUZEIROS 8.0 8.0 PORTLAND FUNCHAL, MADEIRA JAMES RAWES-NAVEGAÇÃO, LDA CRUZEIROS
2022/02/27 08:00 ESC201902442 002466 9636955 AIDAPRIMA IBGU ITALIA 299.95 125572.0 TERMINAL DE CRUZEIROS 8.2 8.2 LISBOA LA CORUÑA JAMES RAWES-NAVEGAÇÃO, LDA CRUZEIROS
2022/04/12 08:00 ESC201902262 002286 9796262 VIKING JUPITER LAYP7 NORUEGA 228.26 47861.0 TERMINAL DE CRUZEIROS 8.0 8.0 MÁLAGA FALMOUTH JAMES RAWES-NAVEGAÇÃO, LDA CRUZEIROS
2022/04/14 10:00 ESC202000835 9007491 CLUB MED 2 FNIR WALLIS E FUTUNA 187.0 14983.0 TERMINAL DE CRUZEIROS 5.2 5.2 LISBOA CAEN PINTO BASTO IV-SERVICOS MARITIMOS, LDA. CRUZEIROS
2022/04/16 08:00 ESC202000447 000446 9169550 OCEANA ZCDN9 BERMUDAS 261.22 77499.0 TERMINAL DE CRUZEIROS 8.1 8.1 LA CORUÑA LISBOA JAMES RAWES-NAVEGAÇÃO, LDA CRUZEIROS
2022/04/16 11:00 ESC201901892 001909 7304314 ALBATROS C6CN4 ILHAS BAAMAS 205.46 28518.0 TERMINAL DE CRUZEIROS FUNCHAL, MADEIRA LA CORUÑA GARLAND NAVEGACAO CRUZEIROS
2022/04/19 08:00 ESC201901327 001338 9641730 MEIN SCHIFF 3 9HA3062 MALTA 293.2 99526.0 TERMINAL DE CRUZEIROS 8.0 8.0 LISBOA LA CORUÑA UNIVERSAL MARITIMA, LDA CRUZEIROS
2022/04/20 08:00 ESC201902393 999000 VIKING 8 VIKIN NORUEGA 228.2 47800.0 TERMINAL DE CRUZEIROS 8.0 8.0 MÁLAGA FALMOUTH JAMES RAWES-NAVEGAÇÃO, LDA NAVIO EM CONSTRUÇÃO
2022/04/20 08:00 ESC202000721 000721 9636967 AIDAPERLA IBRL ITALIA 299.95 125572.0 TERMINAL DE CRUZEIROS 8.1 8.1 FUNCHAL, MADEIRA LA CORUÑA JAMES RAWES-NAVEGAÇÃO, LDA CRUZEIROS
2022/04/23 07:00 ESC201902380 002406 9451094 CELEBRITY SILHOUETTE 9HA2583 MALTA 315.0 122210.0 TERMINAL DE CRUZEIROS 8.6 8.6 GIBRALTAR LA CORUÑA UNIVERSAL MARITIMA, LDA CRUZEIROS
2022/04/25 09:00 ESC202000219 000219 9192179 SILVER WHISPER C6FN7 ILHAS BAAMAS 186.0 28258.0 TERMINAL DE CRUZEIROS 6.0 6.0 LISBOA LA CORUÑA UNIVERSAL MARITIMA, LDA CRUZEIROS
2022/04/29 08:00 ESC201901329 001340 9678408 MEIN SCHIFF 4 9HA3513 MALTA 293.6 99526.0 TERMINAL DE CRUZEIROS 8.0 8.0 LISBOA LA CORUÑA UNIVERSAL MARITIMA, LDA CRUZEIROS
2022/05/01 08:00 ESC202000444 000443 9169550 OCEANA ZCDN9 BERMUDAS 261.22 77499.0 TERMINAL DE CRUZEIROS 8.1 8.1 LA CORUÑA LISBOA JAMES RAWES-NAVEGAÇÃO, LDA CRUZEIROS
2022/05/02 08:00 ESC201902392 002417 9650418 VIKING STAR LAIW6 NORUEGA 228.3 47842.0 TERMINAL DE CRUZEIROS 8.0 8.0 MÁLAGA FALMOUTH JAMES RAWES-NAVEGAÇÃO, LDA CRUZEIROS
2022/05/06 08:00 ESC201901891 001908 9387073 MSC POESIA 3EPL4 PANAMA 293.8 92627.0 TERMINAL DE CRUZEIROS LISBOA FERROL MEDITERRANEAN SHIPPING CO. CRUZEIROS
2022/05/07 09:00 ESC201902779 002810 9479852 COSTA FAVOLOSA ICPK ITALIA 289.65 113216.0 TERMINAL DE CRUZEIROS 8.2 8.2 LISBOA LA CORUÑA JAMES RAWES-NAVEGAÇÃO, LDA CRUZEIROS
2022/05/08 08:00 ESC201902789 002820 9783564 MEIN SCHIFF 1 9HA4683 MALTA 315.7 111554.0 TERMINAL DE CRUZEIROS 6.0 6.0 LISBOA LA CORUÑA UNIVERSAL MARITIMA, LDA CRUZEIROS
2022/05/11 08:00 ESC202000414 000413 9333175 VENTURA ZCDT2 BERMUDAS 288.61 116017.0 TERMINAL DE CRUZEIROS 8.1 8.1 LISBOA ST PETER PORT JAMES RAWES-NAVEGAÇÃO, LDA CRUZEIROS
2022/05/15 08:00 ESC202000445 000444 9169550 OCEANA ZCDN9 BERMUDAS 261.22 77499.0 TERMINAL DE CRUZEIROS 8.1 8.1 LA CORUÑA LISBOA JAMES RAWES-NAVEGAÇÃO, LDA CRUZEIROS
2022/05/19 08:00 ESC201901331 001342 9753208 MEIN SCHIFF 6 9HA4330 MALTA 295.25 98811.0 TERMINAL DE CRUZEIROS 8.0 8.0 LISBOA FERROL UNIVERSAL MARITIMA, LDA CRUZEIROS
2022/05/29 08:00 ESC202000452 000451 9169550 OCEANA ZCDN9 BERMUDAS 261.22 77499.0 TERMINAL DE CRUZEIROS 8.1 8.1 LA CORUÑA LISBOA JAMES RAWES-NAVEGAÇÃO, LDA CRUZEIROS
2022/05/31 08:00 ESC202000415 000414 9333175 VENTURA ZCDT2 BERMUDAS 288.61 116017.0 TERMINAL DE CRUZEIROS 8.1 8.1 ST PETER PORT LISBOA JAMES RAWES-NAVEGAÇÃO, LDA CRUZEIROS
2022/06/07 07:00 ESC202000270 9910000 VENTURE TWO VENTT PAISES BAIXOS 290.0 100000.0 TERMINAL DE CRUZEIROS 8.1 8.1 LISBOA LA CORUÑA JAMES RAWES-NAVEGAÇÃO, LDA NAVIO EM CONSTRUÇÃO
2022/06/12 08:00 ESC202000446 000445 9169550 OCEANA ZCDN9 BERMUDAS 261.22 77499.0 TERMINAL DE CRUZEIROS 8.1 8.1 LA CORUÑA LISBOA JAMES RAWES-NAVEGAÇÃO, LDA CRUZEIROS
2022/06/14 07:00 ESC201901247 9880673 OCEAN ODYSSEY . ILHAS BAAMAS 104.4 7892.0 DOCA 1 NORTE - PASSAGEIROS 4.4 4.4 LISBOA VIGO PORTMAR NAVIO EM CONSTRUÇÃO
2022/06/15 08:00 ESC201901713 001728 9156462 INSIGNIA V7DM2 ILHAS MARSHALL 181.0 30277.0 TERMINAL DE CRUZEIROS 6.0 6.0 LISBOA LA CORUÑA UNIVERSAL MARITIMA, LDA CRUZEIROS
2022/06/19 11:00 ESC202000390 000389 9797371 SCENIC ECLIPSE ? MALTA 165.7 22498.0 TERMINAL DE CRUZEIROS 6.0 6.0 LISBOA VIGO MARMEDSA - AGENCIA MARITIMA, LDA CRUZEIROS
2022/06/20 07:00 ESC202000296 000295 9210218 AZAMARA QUEST 9HOM8 MALTA 181.0 30277.0 DOCA 1 NORTE - PASSAGEIROS 5.0 5.0 LISBOA ST PETER PORT UNIVERSAL MARITIMA, LDA CRUZEIROS
2022/06/22 08:00 ESC202000422 000421 9333175 VENTURA ZCDT2 BERMUDAS 288.61 116017.0 TERMINAL DE CRUZEIROS 8.1 8.1 LISBOA ST PETER PORT JAMES RAWES-NAVEGAÇÃO, LDA CRUZEIROS
2022/06/26 08:00 ESC202000455 000454 9169550 OCEANA ZCDN9 BERMUDAS 261.22 77499.0 TERMINAL DE CRUZEIROS 8.1 8.1 LA CORUÑA LISBOA JAMES RAWES-NAVEGAÇÃO, LDA CRUZEIROS
2022/07/08 07:00 ESC201901394 001406 9066667 CRYSTAL SYMPHONY C6MY5 ILHAS BAAMAS 238.01 51044.0 TERMINAL DE CRUZEIROS 8.0 8.0 LISBOA FERROL PINTO BASTO IV-SERVICOS MARITIMOS, LDA. CRUZEIROS
2022/07/10 08:00 ESC202000450 000449 9169550 OCEANA ZCDN9 BERMUDAS 261.22 77499.0 TERMINAL DE CRUZEIROS 8.1 8.1 LA CORUÑA LISBOA JAMES RAWES-NAVEGAÇÃO, LDA CRUZEIROS
2022/07/12 08:00 ESC202000419 000418 9333175 VENTURA ZCDT2 BERMUDAS 288.61 116017.0 TERMINAL DE CRUZEIROS 8.1 8.1 ST PETER PORT LISBOA JAMES RAWES-NAVEGAÇÃO, LDA CRUZEIROS
2022/07/24 08:00 ESC202000448 000447 9169550 OCEANA ZCDN9 BERMUDAS 261.22 77499.0 TERMINAL DE CRUZEIROS 8.1 8.1 LA CORUÑA LISBOA JAMES RAWES-NAVEGAÇÃO, LDA CRUZEIROS
2022/08/03 08:00 ESC202000418 000417 9333175 VENTURA ZCDT2 BERMUDAS 288.61 116017.0 TERMINAL DE CRUZEIROS 8.1 8.1 LISBOA ST PETER PORT JAMES RAWES-NAVEGAÇÃO, LDA CRUZEIROS
2022/08/07 09:00 ESC201901332 001343 9753208 MEIN SCHIFF 6 9HA4330 MALTA 295.25 98811.0 TERMINAL DE CRUZEIROS 8.0 8.0 LA CORUÑA LISBOA UNIVERSAL MARITIMA, LDA CRUZEIROS
2022/08/21 08:00 ESC202000453 000452 9169550 OCEANA ZCDN9 BERMUDAS 261.22 77499.0 TERMINAL DE CRUZEIROS 8.1 8.1 LA CORUÑA LISBOA JAMES RAWES-NAVEGAÇÃO, LDA CRUZEIROS
2022/08/23 08:00 ESC202000413 000412 9333175 VENTURA ZCDT2 BERMUDAS 288.61 116017.0 TERMINAL DE CRUZEIROS 8.1 8.1 ST PETER PORT LISBOA JAMES RAWES-NAVEGAÇÃO, LDA CRUZEIROS
2022/08/27 07:00 ESC202000538 000538 9189421 CELEBRITY INFINITY 9HJD9 MALTA 294.0 90940.0 TERMINAL DE CRUZEIROS 6.0 6.0 LA CORUÑA LISBOA UNIVERSAL MARITIMA, LDA CRUZEIROS
2022/08/31 07:00 ESC202000539 000539 9189421 CELEBRITY INFINITY 9HJD9 MALTA 294.0 90940.0 TERMINAL DE CRUZEIROS 6.0 6.0 LISBOA CADIZ UNIVERSAL MARITIMA, LDA CRUZEIROS
2022/09/02 08:00 ESC202000412 000411 9226906 ARCADIA ZCDN2 BERMUDAS 285.11 83781.0 TERMINAL DE CRUZEIROS 8.1 8.1 ST PETER PORT LISBOA JAMES RAWES-NAVEGAÇÃO, LDA CRUZEIROS
2022/09/03 07:00 ESC202000540 000540 9228356 JEWEL OF THE SEAS C6FW9 ILHAS BAAMAS 293.0 90090.0 TERMINAL DE CRUZEIROS 6.0 6.0 UNKOWN LOCATION UNKOWN LOCATION UNIVERSAL MARITIMA, LDA CRUZEIROS
2022/09/04 07:00 ESC201901248 9880673 OCEAN ODYSSEY . ILHAS BAAMAS 104.4 7892.0 DOCA 1 NORTE - PASSAGEIROS 4.4 4.4 VILLAGARCÍA (DE AROUSA) LISBOA PORTMAR NAVIO EM CONSTRUÇÃO
2022/09/04 08:00 ESC202000449 000448 9169550 OCEANA ZCDN9 BERMUDAS 261.22 77499.0 TERMINAL DE CRUZEIROS 8.1 8.1 LA CORUÑA LISBOA JAMES RAWES-NAVEGAÇÃO, LDA CRUZEIROS
2022/09/05 07:00 ESC201901075 001087 9189421 CELEBRITY INFINITY 9HJD9 MALTA 294.0 90940.0 TERMINAL DE CRUZEIROS 8.0 8.0 LA CORUÑA LISBOA UNIVERSAL MARITIMA, LDA CRUZEIROS
2022/09/07 08:00 ESC202000298 000297 9210218 AZAMARA QUEST 9HOM8 MALTA 181.0 30277.0 DOCA 1 NORTE - PASSAGEIROS 6.0 6.0 LA CORUÑA LISBOA UNIVERSAL MARITIMA, LDA CRUZEIROS
2022/09/09 07:00 ESC201901077 001089 9189421 CELEBRITY INFINITY 9HJD9 MALTA 294.0 90940.0 TERMINAL DE CRUZEIROS LISBOA LA CORUÑA UNIVERSAL MARITIMA, LDA CRUZEIROS
2022/09/14 08:00 ESC202000421 000420 9333175 VENTURA ZCDT2 BERMUDAS 288.61 116017.0 TERMINAL DE CRUZEIROS 8.1 8.1 LISBOA ST PETER PORT JAMES RAWES-NAVEGAÇÃO, LDA CRUZEIROS
2022/09/16 07:00 ESC202000542 000542 9189421 CELEBRITY INFINITY 9HJD9 MALTA 294.0 90940.0 TERMINAL DE CRUZEIROS LA CORUÑA LISBOA UNIVERSAL MARITIMA, LDA CRUZEIROS
2022/09/16 09:00 ESC202000361 000360 9219331 THE WORLD C6RW4 ILHAS BAAMAS 196.35 43188.0 DOCA 1 NORTE - PASSAGEIROS 6.9 6.9 COBH TANGER MED WILHELMSEN SHIPS SERVICE PORTUGAL, S.A. CRUZEIROS
2022/09/18 07:00 ESC201901395 001407 9066667 CRYSTAL SYMPHONY C6MY5 ILHAS BAAMAS 238.01 51044.0 TERMINAL DE CRUZEIROS 8.0 8.0 LA CORUÑA LISBOA PINTO BASTO IV-SERVICOS MARITIMOS, LDA. CRUZEIROS
2022/09/18 08:00 ESC202000451 000450 9169550 OCEANA ZCDN9 BERMUDAS 261.22 77499.0 TERMINAL DE CRUZEIROS 8.1 8.1 LA CORUÑA LISBOA JAMES RAWES-NAVEGAÇÃO, LDA CRUZEIROS
2022/09/20 07:00 ESC202000543 000543 9189421 CELEBRITY INFINITY 9HJD9 MALTA 294.0 90940.0 TERMINAL DE CRUZEIROS LISBOA CADIZ UNIVERSAL MARITIMA, LDA CRUZEIROS
2022/09/25 07:00 ESC201901090 001102 9189421 CELEBRITY INFINITY 9HJD9 MALTA 294.0 90940.0 TERMINAL DE CRUZEIROS 8.0 8.0 LA CORUÑA LISBOA UNIVERSAL MARITIMA, LDA CRUZEIROS
2022/09/28 08:00 ESC202000544 000544 9451094 CELEBRITY SILHOUETTE 9HA2583 MALTA 315.0 122210.0 TERMINAL DE CRUZEIROS SOUTHAMPTON LANZAROTE UNIVERSAL MARITIMA, LDA CRUZEIROS
2022/09/29 07:00 ESC201901093 001105 9189421 CELEBRITY INFINITY 9HJD9 MALTA 294.0 90940.0 TERMINAL DE CRUZEIROS 8.0 8.0 LISBOA LA CORUÑA UNIVERSAL MARITIMA, LDA CRUZEIROS
2022/10/03 08:00 ESC201902263 002287 9796262 VIKING JUPITER LAYP7 NORUEGA 228.26 47861.0 TERMINAL DE CRUZEIROS 8.0 8.0 FALMOUTH MÁLAGA JAMES RAWES-NAVEGAÇÃO, LDA CRUZEIROS
2022/10/04 08:00 ESC202000416 000415 9333175 VENTURA ZCDT2 BERMUDAS 288.61 116017.0 TERMINAL DE CRUZEIROS 8.1 8.1 CHERBOURG LISBOA JAMES RAWES-NAVEGAÇÃO, LDA CRUZEIROS
2022/10/06 07:00 ESC202000545 000545 9189421 CELEBRITY INFINITY 9HJD9 MALTA 294.0 90940.0 TERMINAL DE CRUZEIROS LA CORUÑA LISBOA UNIVERSAL MARITIMA, LDA CRUZEIROS
2022/10/08 08:00 ESC202000718 000718 9195169 NORWEGIAN DAWN C6FT7 ILHAS BAAMAS 294.13 92250.0 TERMINAL DE CRUZEIROS LA CORUÑA LISBOA UNIVERSAL MARITIMA, LDA CRUZEIROS
2022/10/10 07:00 ESC202000547 000547 9189421 CELEBRITY INFINITY 9HJD9 MALTA 294.0 90940.0 TERMINAL DE CRUZEIROS LISBOA CADIZ UNIVERSAL MARITIMA, LDA CRUZEIROS
2022/10/12 07:00 ESC202000548 000548 9451094 CELEBRITY SILHOUETTE 9HA2583 MALTA 315.0 122210.0 TERMINAL DE CRUZEIROS VIGO LISBOA UNIVERSAL MARITIMA, LDA CRUZEIROS
2022/10/15 07:00 ESC201901095 001107 9189421 CELEBRITY INFINITY 9HJD9 MALTA 294.0 90940.0 TERMINAL DE CRUZEIROS 8.0 8.0 LA CORUÑA LISBOA UNIVERSAL MARITIMA, LDA CRUZEIROS
2022/10/19 07:00 ESC201901096 001108 9189421 CELEBRITY INFINITY 9HJD9 MALTA 294.0 90940.0 TERMINAL DE CRUZEIROS LISBOA LA CORUÑA UNIVERSAL MARITIMA, LDA CRUZEIROS
2022/10/21 08:00 ESC201901330 001341 9678408 MEIN SCHIFF 4 9HA3513 MALTA 293.6 99526.0 TERMINAL DE CRUZEIROS 8.0 8.0 VIGO LISBOA UNIVERSAL MARITIMA, LDA CRUZEIROS
2022/10/25 08:00 ESC202000420 000419 9333175 VENTURA ZCDT2 BERMUDAS 288.61 116017.0 TERMINAL DE CRUZEIROS 8.1 8.1 CHERBOURG LISBOA JAMES RAWES-NAVEGAÇÃO, LDA CRUZEIROS
2022/10/30 12:00 ESC202000820 000821 8913162 AMADEA C6VE9 ILHAS BAAMAS 190.0 29008.0 DOCA 1 NORTE - PASSAGEIROS LA CORUÑA LISBOA GARLAND NAVEGACAO CRUZEIROS
2022/11/01 08:00 ESC202000417 000416 9333175 VENTURA ZCDT2 BERMUDAS 288.61 116017.0 TERMINAL DE CRUZEIROS 8.1 8.1 LA CORUÑA CADIZ JAMES RAWES-NAVEGAÇÃO, LDA CRUZEIROS
2022/12/18 13:00 ESC202000571 000569 8700280 AMERA C6EA7 ILHAS BAAMAS 204.0 38848.0 TERMINAL DE CRUZEIROS FUNCHAL, MADEIRA HAMBURG GARLAND NAVEGACAO CRUZEIROS
2023/04/09 08:00 ESC202000069 000070 9490052 AIDAMAR ICSJ ITALIA 253.22 71304.0 TERMINAL DE CRUZEIROS 8.1 8.1 LISBOA LA CORUÑA JAMES RAWES-NAVEGAÇÃO, LDA CRUZEIROS
2023/05/10 08:00 ESC202000019 000019 9479852 COSTA FAVOLOSA ICPK ITALIA 289.65 113216.0 TERMINAL DE CRUZEIROS 8.1 8.1 LA CORUÑA LISBOA JAMES RAWES-NAVEGAÇÃO, LDA CRUZEIROS
2023/08/30 07:00 ESC202000549 000549 9451094 CELEBRITY SILHOUETTE 9HA2583 MALTA 315.0 122210.0 TERMINAL DE CRUZEIROS UNKOWN LOCATION UNKOWN LOCATION UNIVERSAL MARITIMA, LDA CRUZEIROS
2023/09/02 07:00 ESC202000601 000599 9228356 JEWEL OF THE SEAS C6FW9 ILHAS BAAMAS 293.0 90090.0 TERMINAL DE CRUZEIROS UNKOWN LOCATION UNKOWN LOCATION UNIVERSAL MARITIMA, LDA CRUZEIROS
2023/09/04 07:00 ESC201901097 001109 9189421 CELEBRITY INFINITY 9HJD9 MALTA 294.0 90940.0 TERMINAL DE CRUZEIROS 8.0 8.0 LA CORUÑA LISBOA UNIVERSAL MARITIMA, LDA CRUZEIROS
2023/09/08 07:00 ESC201901099 001111 9189421 CELEBRITY INFINITY 9HJD9 MALTA 294.0 90940.0 TERMINAL DE CRUZEIROS 8.0 8.0 LISBOA LA CORUÑA UNIVERSAL MARITIMA, LDA CRUZEIROS
2023/09/22 07:00 ESC202000602 000600 9228356 JEWEL OF THE SEAS C6FW9 ILHAS BAAMAS 293.0 90090.0 TERMINAL DE CRUZEIROS UNKOWN LOCATION UNKOWN LOCATION UNIVERSAL MARITIMA, LDA CRUZEIROS
2023/09/24 07:00 ESC201901100 001112 9189421 CELEBRITY INFINITY 9HJD9 MALTA 294.0 90940.0 TERMINAL DE CRUZEIROS 8.0 8.0 LA CORUÑA LISBOA UNIVERSAL MARITIMA, LDA CRUZEIROS
2023/09/28 07:00 ESC201901101 001113 9189421 CELEBRITY INFINITY 9HJD9 MALTA 294.0 90940.0 TERMINAL DE CRUZEIROS 8.0 8.0 LISBOA LA CORUÑA UNIVERSAL MARITIMA, LDA CRUZEIROS
2023/10/04 07:00 ESC202000768 000769 9812705 CELEBRITY EDGE 9HA4612 MALTA 306.0 129500.0 TERMINAL DE CRUZEIROS UNKOWN LOCATION UNKOWN LOCATION UNIVERSAL MARITIMA, LDA CRUZEIROS
2023/10/14 07:00 ESC201901102 001114 9189421 CELEBRITY INFINITY 9HJD9 MALTA 294.0 90940.0 TERMINAL DE CRUZEIROS 8.0 8.0 LA CORUÑA LISBOA UNIVERSAL MARITIMA, LDA CRUZEIROS
2023/10/15 07:00 ESC202000769 000770 9812705 CELEBRITY EDGE 9HA4612 MALTA 306.0 129500.0 TERMINAL DE CRUZEIROS UNKOWN LOCATION UNKOWN LOCATION UNIVERSAL MARITIMA, LDA CRUZEIROS
2023/10/18 07:00 ESC201901103 001115 9189421 CELEBRITY INFINITY 9HJD9 MALTA 294.0 90940.0 TERMINAL DE CRUZEIROS LISBOA LA CORUÑA UNIVERSAL MARITIMA, LDA CRUZEIROS
2024/08/28 07:00 ESC202000773 000774 9451094 CELEBRITY SILHOUETTE 9HA2583 MALTA 315.0 122210.0 TERMINAL DE CRUZEIROS UNKOWN LOCATION UNKOWN LOCATION UNIVERSAL MARITIMA, LDA CRUZEIROS
2024/08/30 07:00 ESC202000774 000775 9189421 CELEBRITY INFINITY 9HJD9 MALTA 294.0 90940.0 TERMINAL DE CRUZEIROS UNKOWN LOCATION UNKOWN LOCATION UNIVERSAL MARITIMA, LDA CRUZEIROS
2024/09/03 07:00 ESC202000775 000776 9189421 CELEBRITY INFINITY 9HJD9 MALTA 294.0 90940.0 TERMINAL DE CRUZEIROS UNKOWN LOCATION UNKOWN LOCATION UNIVERSAL MARITIMA, LDA CRUZEIROS
2024/09/19 07:00 ESC202000782 000783 9189421 CELEBRITY INFINITY 9HJD9 MALTA 294.0 90940.0 TERMINAL DE CRUZEIROS UNKOWN LOCATION UNKOWN LOCATION UNIVERSAL MARITIMA, LDA CRUZEIROS
2024/09/23 07:00 ESC202000783 000784 9189421 CELEBRITY INFINITY 9HJD9 MALTA 294.0 90940.0 TERMINAL DE CRUZEIROS UNKOWN LOCATION UNKOWN LOCATION UNIVERSAL MARITIMA, LDA CRUZEIROS
2024/10/13 07:00 ESC202000784 000785 9189421 CELEBRITY INFINITY 9HJD9 MALTA 294.0 90940.0 TERMINAL DE CRUZEIROS UNKOWN LOCATION UNKOWN LOCATION UNIVERSAL MARITIMA, LDA CRUZEIROS
2024/10/20 07:00 ESC202000785 000786 9812705 CELEBRITY EDGE 9HA4612 MALTA 306.0 129500.0 TERMINAL DE CRUZEIROS UNKOWN LOCATION UNKOWN LOCATION UNIVERSAL MARITIMA, LDA CRUZEIROS
2024/10/30 07:00 ESC202000786 000787 9812705 CELEBRITY EDGE 9HA4612 MALTA 306.0 129500.0 TERMINAL DE CRUZEIROS UNKOWN LOCATION UNKOWN LOCATION UNIVERSAL MARITIMA, LDA CRUZEIROS
2025/08/27 07:00 ESC202000798 000799 9451094 CELEBRITY SILHOUETTE 9HA2583 MALTA 315.0 122210.0 TERMINAL DE CRUZEIROS UNKOWN LOCATION UNKOWN LOCATION UNIVERSAL MARITIMA, LDA CRUZEIROS
2025/08/29 07:00 ESC202000799 000800 9189421 CELEBRITY INFINITY 9HJD9 MALTA 294.0 90940.0 TERMINAL DE CRUZEIROS UNKOWN LOCATION UNKOWN LOCATION UNIVERSAL MARITIMA, LDA CRUZEIROS
2025/09/02 07:00 ESC202000809 000810 9189421 CELEBRITY INFINITY 9HJD9 MALTA 294.0 90940.0 TERMINAL DE CRUZEIROS UNKOWN LOCATION UNKOWN LOCATION UNIVERSAL MARITIMA, LDA CRUZEIROS
2025/09/18 07:00 ESC202000810 000811 9189421 CELEBRITY INFINITY 9HJD9 MALTA 294.0 90940.0 TERMINAL DE CRUZEIROS UNKOWN LOCATION UNKOWN LOCATION UNIVERSAL MARITIMA, LDA CRUZEIROS
2025/09/22 07:00 ESC202000811 000812 9189421 CELEBRITY INFINITY 9HJD9 MALTA 294.0 90940.0 TERMINAL DE CRUZEIROS UNKOWN LOCATION UNKOWN LOCATION UNIVERSAL MARITIMA, LDA CRUZEIROS
2025/10/12 07:00 ESC202000812 000813 9189421 CELEBRITY INFINITY 9HJD9 MALTA 294.0 90940.0 TERMINAL DE CRUZEIROS UNKOWN LOCATION UNKOWN LOCATION UNIVERSAL MARITIMA, LDA CRUZEIROS
2025/10/19 07:00 ESC202000813 000814 9812705 CELEBRITY EDGE 9HA4612 MALTA 306.0 129500.0 TERMINAL DE CRUZEIROS UNKOWN LOCATION UNKOWN LOCATION UNIVERSAL MARITIMA, LDA CRUZEIROS
2026/08/28 07:00 ESC202000815 000816 9189421 CELEBRITY INFINITY 9HJD9 MALTA 294.0 90940.0 TERMINAL DE CRUZEIROS UNKOWN LOCATION UNKOWN LOCATION UNIVERSAL MARITIMA, LDA CRUZEIROS
2026/09/01 07:00 ESC202000816 000817 9189421 CELEBRITY INFINITY 9HJD9 MALTA 294.0 90940.0 TERMINAL DE CRUZEIROS UNKOWN LOCATION UNKOWN LOCATION UNIVERSAL MARITIMA, LDA CRUZEIROS
2026/09/02 07:00 ESC202000817 000818 9451094 CELEBRITY SILHOUETTE 9HA2583 MALTA 315.0 122210.0 TERMINAL DE CRUZEIROS UNKOWN LOCATION UNKOWN LOCATION UNIVERSAL MARITIMA, LDA CRUZEIROS

APDL - Administração dos Portos do Douro, Leixões e Viana do Castelo, SA